Wetterdaten: Freitag, 28.02.2020
Datum Zeit Temp. Aussen Temp. o. S. Temp +5cm Feuchte Auss Luftdruck Regen Sonnenschein Regendauer Solar Windben Empfang
28.02.2020 00:00 1,2 C 0,6 C 0,0 C 99 % 1010,3 hPa 0,0 l/m 0 min 0 min 0 W/m 3,2 km/h (1 Bft) 93,62 %
28.02.2020 00:02 1,2 C 0,6 C 0,0 C 99 % 1010,4 hPa 0,0 l/m 0 min 0 min 0 W/m 0,0 km/h (0 Bft) 95,65 %
28.02.2020 00:04 1,2 C 0,6 C 0,0 C 99 % 1010,5 hPa 0,0 l/m 0 min 0 min 0 W/m 3,2 km/h (1 Bft) 95,74 %
28.02.2020 00:06 1,2 C 0,6 C 0,0 C 99 % 1010,6 hPa 0,0 l/m 0 min 0 min 0 W/m 12,9 km/h (3 Bft) 100,00 %
28.02.2020 00:08 1,2 C 0,6 C 0,0 C 99 % 1010,6 hPa 0,0 l/m 0 min 0 min 0 W/m 0,0 km/h (0 Bft) 54,55 %
28.02.2020 00:10 1,2 C 0,6 C 0,0 C 99 % 1010,7 hPa 0,0 l/m 0 min 0 min 0 W/m 12,9 km/h (3 Bft) 100,00 %
28.02.2020 00:12 1,2 C 0,6 C 0,0 C 99 % 1010,7 hPa 0,0 l/m 0 min 0 min 0 W/m 0,0 km/h (0 Bft) 100,00 %
28.02.2020 00:14 1,2 C 0,6 C 0,0 C 99 % 1010,7 hPa 0,0 l/m 0 min 0 min 0 W/m 0,0 km/h (0 Bft) 100,00 %
28.02.2020 00:16 1,2 C 0,6 C 0,0 C 99 % 1010,9 hPa 0,0 l/m 0 min 0 min 0 W/m 3,2 km/h (1 Bft) 100,00 %
28.02.2020 00:18 1,2 C 0,0 C 0,0 C 99 % 1010,8 hPa 0,0 l/m 0 min 0 min 0 W/m 0,0 km/h (0 Bft) 100,00 %
28.02.2020 00:20 1,2 C 0,0 C 0,0 C 99 % 1010,9 hPa 0,0 l/m 0 min 0 min 0 W/m 0,0 km/h (0 Bft) 97,83 %
28.02.2020 00:22 1,2 C 0,0 C 0,0 C 99 % 1010,9 hPa 0,0 l/m 0 min 0 min 0 W/m 3,2 km/h (1 Bft) 100,00 %
28.02.2020 00:24 1,1 C 0,0 C 0,0 C 99 % 1010,9 hPa 0,0 l/m 0 min 0 min 0 W/m 3,2 km/h (1 Bft) 100,00 %
28.02.2020 00:26 1,1 C 0,0 C 0,0 C 99 % 1011,0 hPa 0,0 l/m 0 min 0 min 0 W/m 3,2 km/h (1 Bft) 100,00 %
28.02.2020 00:28 1,1 C 0,0 C 0,0 C 99 % 1011,1 hPa 0,0 l/m 0 min 0 min 0 W/m 0,0 km/h (0 Bft) 100,00 %
28.02.2020 00:30 1,1 C 0,0 C 0,0 C 99 % 1011,1 hPa 0,0 l/m 0 min 0 min 0 W/m 3,2 km/h (1 Bft) 100,00 %
28.02.2020 00:32 1,1 C 0,0 C 0,0 C 99 % 1011,1 hPa 0,0 l/m 0 min 0 min 0 W/m 3,2 km/h (1 Bft) 100,00 %
28.02.2020 00:34 1,1 C 0,0 C 0,0 C 99 % 1011,2 hPa 0,0 l/m 0 min 0 min 0 W/m 3,2 km/h (1 Bft) 100,00 %
28.02.2020 00:36 1,1 C 0,0 C -0,6 C 99 % 1011,2 hPa 0,0 l/m 0 min 0 min 0 W/m 0,0 km/h (0 Bft) 100,00 %
28.02.2020 00:38 1,1 C 0,0 C -0,6 C 99 % 1011,2 hPa 0,0 l/m 0 min 0 min 0 W/m 0,0 km/h (0 Bft) 100,00 %
28.02.2020 00:40 1,1 C 0,0 C -0,6 C 99 % 1011,3 hPa 0,0 l/m 0 min 0 min 0 W/m 0,0 km/h (0 Bft) 100,00 %
28.02.2020 00:42 1,0 C 0,0 C 0,0 C 99 % 1011,4 hPa 0,0 l/m 0 min 0 min 0 W/m 0,0 km/h (0 Bft) 93,62 %
28.02.2020 00:44 1,0 C 0,0 C 0,0 C 99 % 1011,4 hPa 0,0 l/m 0 min 0 min 0 W/m 0,0 km/h (0 Bft) 100,00 %
28.02.2020 00:46 1,0 C 0,0 C 0,0 C 99 % 1011,5 hPa 0,0 l/m 0 min 0 min 0 W/m 0,0 km/h (0 Bft) 100,00 %
28.02.2020 00:48 1,0 C 0,0 C 0,0 C 99 % 1011,5 hPa 0,0 l/m 0 min 0 min 0 W/m 3,2 km/h (1 Bft) 100,00 %
28.02.2020 00:50 1,0 C 0,0 C 0,0 C 99 % 1011,6 hPa 0,0 l/m 0 min 0 min 0 W/m 0,0 km/h (0 Bft) 100,00 %
28.02.2020 00:52 1,0 C 0,6 C 0,0 C 99 % 1011,5 hPa 0,0 l/m 0 min 0 min 0 W/m 3,2 km/h (1 Bft) 97,87 %
28.02.2020 00:54 1,1 C 0,6 C 0,0 C 99 % 1011,6 hPa 0,0 l/m 0 min 0 min 0 W/m 3,2 km/h (1 Bft) 100,00 %
28.02.2020 00:56 1,1 C 0,6 C 0,0 C 99 % 1011,6 hPa 0,0 l/m 0 min 0 min 0 W/m 3,2 km/h (1 Bft) 54,55 %
28.02.2020 00:58 1,1 C 0,0 C 0,0 C 99 % 1011,8 hPa 0,0 l/m 0 min 0 min 0 W/m 0,0 km/h (0 Bft) 100,00 %
28.02.2020 01:00 1,1 C 0,0 C 0,0 C 99 % 1011,7 hPa 0,0 l/m 0 min 0 min 0 W/m 0,0 km/h (0 Bft) 100,00 %
28.02.2020 01:02 1,1 C 0,6 C 0,0 C 99 % 1011,8 hPa 0,0 l/m 0 min 0 min 0 W/m 12,9 km/h (3 Bft) 100,00 %
28.02.2020 01:04 1,1 C 0,0 C 0,0 C 99 % 1011,9 hPa 0,0 l/m 0 min 0 min 0 W/m 3,2 km/h (1 Bft) 100,00 %
28.02.2020 01:06 1,1 C 0,6 C 0,0 C 99 % 1011,9 hPa 0,0 l/m 0 min 0 min 0 W/m 0,0 km/h (0 Bft) 100,00 %
28.02.2020 01:08 1,1 C 0,6 C 0,0 C 99 % 1011,9 hPa 0,0 l/m 0 min 0 min 0 W/m 0,0 km/h (0 Bft) 100,00 %
28.02.2020 01:10 1,1 C 0,6 C 0,0 C 99 % 1012,0 hPa 0,0 l/m 0 min 0 min 0 W/m 3,2 km/h (1 Bft) 100,00 %
28.02.2020 01:12 1,1 C 0,0 C 0,0 C 99 % 1012,0 hPa 0,0 l/m 0 min 0 min 0 W/m 0,0 km/h (0 Bft) 100,00 %
28.02.2020 01:14 1,1 C 0,6 C 0,0 C 99 % 1012,1 hPa 0,0 l/m 0 min 0 min 0 W/m 0,0 km/h (0 Bft) 100,00 %
28.02.2020 01:16 1,1 C 0,0 C 0,0 C 99 % 1012,1 hPa 0,0 l/m 0 min 0 min 0 W/m 3,2 km/h (1 Bft) 100,00 %
28.02.2020 01:18 1,1 C 0,0 C 0,0 C 99 % 1012,2 hPa 0,0 l/m 0 min 0 min 0 W/m 0,0 km/h (0 Bft) 100,00 %
28.02.2020 01:20 1,1 C 0,0 C 0,0 C 99 % 1012,2 hPa 0,0 l/m 0 min 0 min 0 W/m 0,0 km/h (0 Bft) 100,00 %
28.02.2020 01:22 1,1 C 0,0 C 0,0 C 99 % 1012,3 hPa 0,0 l/m 0 min 0 min 0 W/m 0,0 km/h (0 Bft) 100,00 %
28.02.2020 01:24 1,1 C 0,0 C -0,6 C 99 % 1012,4 hPa 0,0 l/m 0 min 0 min 0 W/m 0,0 km/h (0 Bft) 95,74 %
28.02.2020 01:26 1,1 C 0,0 C -0,6 C 99 % 1012,4 hPa 0,0 l/m 0 min 0 min 0 W/m 0,0 km/h (0 Bft) 97,87 %
28.02.2020 01:28 1,0 C 0,0 C -0,6 C 99 % 1012,5 hPa 0,0 l/m 0 min 0 min 0 W/m 0,0 km/h (0 Bft) 100,00 %
28.02.2020 01:30 1,0 C 0,0 C -0,6 C 99 % 1012,5 hPa 0,0 l/m 0 min 0 min 0 W/m 0,0 km/h (0 Bft) 100,00 %
28.02.2020 01:32 1,0 C 0,0 C -0,6 C 99 % 1012,5 hPa 0,0 l/m 0 min 0 min 0 W/m 3,2 km/h (1 Bft) 100,00 %
28.02.2020 01:34 1,0 C 0,0 C -0,6 C 99 % 1012,6 hPa 0,0 l/m 0 min 0 min 0 W/m 0,0 km/h (0 Bft) 97,87 %
28.02.2020 01:36 1,0 C 0,0 C -0,6 C 99 % 1012,6 hPa 0,0 l/m 0 min 0 min 0 W/m 0,0 km/h (0 Bft) 97,87 %
28.02.2020 01:38 1,0 C 0,0 C -0,6 C 99 % 1012,6 hPa 0,0 l/m 0 min 0 min 0 W/m 0,0 km/h (0 Bft) 97,87 %
28.02.2020 01:40 0,9 C 0,0 C -0,6 C 99 % 1012,7 hPa 0,0 l/m 0 min 0 min 0 W/m 0,0 km/h (0 Bft) 100,00 %
28.02.2020 01:42 0,9 C 0,0 C -0,6 C 99 % 1012,7 hPa 0,0 l/m 0 min 0 min 0 W/m 0,0 km/h (0 Bft) 97,83 %
28.02.2020 01:44 0,9 C 0,0 C -0,6 C 99 % 1012,8 hPa 0,0 l/m 0 min 0 min 0 W/m 0,0 km/h (0 Bft) 95,74 %
28.02.2020 01:46 0,9 C 0,0 C -0,6 C 99 % 1012,8 hPa 0,0 l/m 0 min 0 min 0 W/m 0,0 km/h (0 Bft) 97,87 %
28.02.2020 01:48 0,9 C 0,0 C -0,6 C 99 % 1012,9 hPa 0,0 l/m 0 min 0 min 0 W/m 0,0 km/h (0 Bft) 97,87 %
28.02.2020 01:50 0,9 C 0,0 C -0,6 C 99 % 1012,9 hPa 0,0 l/m 0 min 0 min 0 W/m 0,0 km/h (0 Bft) 95,74 %
28.02.2020 01:52 0,9 C 0,0 C -0,6 C 99 % 1013,0 hPa 0,0 l/m 0 min 0 min 0 W/m 0,0 km/h (0 Bft) 95,74 %
28.02.2020 01:54 0,9 C 0,0 C -0,6 C 99 % 1013,0 hPa 0,0 l/m 0 min 0 min 0 W/m 0,0 km/h (0 Bft) 95,65 %
28.02.2020 01:56 0,9 C 0,0 C -0,6 C 99 % 1013,1 hPa 0,0 l/m 0 min 0 min 0 W/m 0,0 km/h (0 Bft) 95,74 %
28.02.2020 01:58 0,9 C 0,0 C -0,6 C 99 % 1013,1 hPa 0,0 l/m 0 min 0 min 0 W/m 0,0 km/h (0 Bft) 95,74 %
28.02.2020 02:00 0,9 C 0,0 C -0,6 C 99 % 1013,1 hPa 0,0 l/m 0 min 0 min 0 W/m 0,0 km/h (0 Bft) 93,62 %
28.02.2020 02:02 0,9 C 0,0 C -0,6 C 99 % 1013,2 hPa 0,0 l/m 0 min 0 min 0 W/m 3,2 km/h (1 Bft) 95,74 %
28.02.2020 02:04 0,8 C 0,0 C -0,6 C 99 % 1013,2 hPa 0,0 l/m 0 min 0 min 0 W/m 0,0 km/h (0 Bft) 95,24 %
28.02.2020 02:06 0,8 C 0,0 C -0,6 C 99 % 1013,2 hPa 0,0 l/m 0 min 0 min 0 W/m 0,0 km/h (0 Bft) 95,74 %
28.02.2020 02:08 0,8 C 0,0 C -0,6 C 99 % 1013,2 hPa 0,0 l/m 0 min 0 min 0 W/m 0,0 km/h (0 Bft) 95,74 %
28.02.2020 02:10 0,8 C 0,0 C -0,6 C 99 % 1013,3 hPa 0,0 l/m 0 min 0 min 0 W/m 0,0 km/h (0 Bft) 93,48 %
28.02.2020 02:12 0,8 C 0,0 C -0,6 C 99 % 1013,3 hPa 0,0 l/m 0 min 0 min 0 W/m 0,0 km/h (0 Bft) 97,87 %
28.02.2020 02:14 0,8 C 0,0 C -0,6 C 99 % 1013,4 hPa 0,0 l/m 0 min 0 min 0 W/m 3,2 km/h (1 Bft) 95,74 %
28.02.2020 02:16 0,8 C 0,0 C -0,6 C 99 % 1013,4 hPa 0,0 l/m 0 min 0 min 0 W/m 0,0 km/h (0 Bft) 95,74 %
28.02.2020 02:18 0,8 C 0,0 C -0,6 C 99 % 1013,4 hPa 0,0 l/m 0 min 0 min 0 W/m 3,2 km/h (1 Bft) 93,62 %
28.02.2020 02:20 0,8 C 0,0 C -0,6 C 99 % 1013,5 hPa 0,0 l/m 0 min 0 min 0 W/m 0,0 km/h (0 Bft) 93,48 %
28.02.2020 02:22 0,8 C 0,0 C -0,6 C 99 % 1013,6 hPa 0,0 l/m 0 min 0 min 0 W/m 0,0 km/h (0 Bft) 93,62 %
28.02.2020 02:24 0,8 C 0,0 C -0,6 C 99 % 1013,7 hPa 0,0 l/m 0 min 0 min 0 W/m 0,0 km/h (0 Bft) 93,62 %
28.02.2020 02:26 0,8 C 0,0 C -0,6 C 99 % 1013,8 hPa 0,0 l/m 0 min 0 min 0 W/m 0,0 km/h (0 Bft) 91,49 %
28.02.2020 02:28 0,8 C 0,0 C -0,6 C 99 % 1013,8 hPa 0,0 l/m 0 min 0 min 0 W/m 3,2 km/h (1 Bft) 91,49 %
28.02.2020 02:30 0,8 C 0,0 C -0,6 C 99 % 1013,9 hPa 0,0 l/m 0 min 0 min 0 W/m 0,0 km/h (0 Bft) 93,62 %
28.02.2020 02:32 0,8 C 0,0 C -0,6 C 99 % 1013,9 hPa 0,0 l/m 0 min 0 min 0 W/m 0,0 km/h (0 Bft) 93,48 %
28.02.2020 02:34 0,8 C 0,0 C 0,0 C 99 % 1013,8 hPa 0,0 l/m 0 min 0 min 0 W/m 12,9 km/h (3 Bft) 95,74 %
28.02.2020 02:36 0,8 C 0,6 C 0,0 C 99 % 1013,9 hPa 0,0 l/m 0 min 0 min 0 W/m 3,2 km/h (1 Bft) 95,74 %
28.02.2020 02:38 0,9 C 0,6 C 0,0 C 99 % 1013,9 hPa 0,0 l/m 0 min 0 min 0 W/m 16,1 km/h (3 Bft) 97,87 %
28.02.2020 02:40 0,9 C 0,6 C 0,0 C 99 % 1013,8 hPa 0,0 l/m 0 min 0 min 0 W/m 0,0 km/h (0 Bft) 97,87 %
28.02.2020 02:42 0,9 C 0,6 C 0,0 C 99 % 1013,8 hPa 0,0 l/m 0 min 0 min 0 W/m 0,0 km/h (0 Bft) 97,87 %
28.02.2020 02:44 0,9 C 0,6 C 0,0 C 99 % 1013,8 hPa 0,0 l/m 0 min 0 min 0 W/m 0,0 km/h (0 Bft) 97,83 %
28.02.2020 02:46 1,0 C 0,6 C 0,0 C 99 % 1013,9 hPa 0,0 l/m 0 min 0 min 0 W/m 3,2 km/h (1 Bft) 95,74 %
28.02.2020 02:48 1,0 C 0,6 C 0,0 C 99 % 1013,9 hPa 0,0 l/m 0 min 0 min 0 W/m 3,2 km/h (1 Bft) 97,87 %
28.02.2020 02:50 1,0 C 0,6 C 0,0 C 99 % 1013,9 hPa 0,0 l/m 0 min 0 min 0 W/m 0,0 km/h (0 Bft) 97,87 %
28.02.2020 02:52 1,1 C 0,6 C 0,0 C 99 % 1013,9 hPa 0,0 l/m 0 min 0 min 0 W/m 3,2 km/h (1 Bft) 95,74 %
28.02.2020 02:54 1,1 C 0,6 C 0,0 C 99 % 1013,9 hPa 0,0 l/m 0 min 0 min 0 W/m 3,2 km/h (1 Bft) 97,87 %
28.02.2020 02:56 1,1 C 0,6 C 0,0 C 99 % 1013,9 hPa 0,0 l/m 0 min 0 min 0 W/m 6,4 km/h (2 Bft) 95,65 %
28.02.2020 02:58 1,1 C 0,6 C 0,0 C 99 % 1014,0 hPa 0,0 l/m 0 min 0 min 0 W/m 0,0 km/h (0 Bft) 97,87 %
28.02.2020 03:00 1,1 C 0,6 C 0,0 C 99 % 1013,9 hPa 0,0 l/m 0 min 0 min 0 W/m 3,2 km/h (1 Bft) 97,87 %
28.02.2020 03:02 1,1 C 0,6 C 0,0 C 99 % 1014,0 hPa 0,0 l/m 0 min 0 min 0 W/m 0,0 km/h (0 Bft) 93,62 %
28.02.2020 03:04 1,1 C 0,6 C 0,0 C 99 % 1014,1 hPa 0,0 l/m 0 min 0 min 0 W/m 3,2 km/h (1 Bft) 97,87 %
28.02.2020 03:06 1,1 C 0,6 C 0,0 C 99 % 1014,1 hPa 0,0 l/m 0 min 0 min 0 W/m 3,2 km/h (1 Bft) 97,87 %
28.02.2020 03:08 1,1 C 0,6 C 0,0 C 99 % 1014,1 hPa 0,0 l/m 0 min 0 min 0 W/m 0,0 km/h (0 Bft) 97,83 %
28.02.2020 03:10 1,1 C 0,6 C 0,0 C 99 % 1014,1 hPa 0,0 l/m 0 min 0 min 0 W/m 0,0 km/h (0 Bft) 95,74 %
28.02.2020 03:12 1,1 C 0,6 C 0,0 C 99 % 1014,1 hPa 0,0 l/m 0 min 0 min 0 W/m 0,0 km/h (0 Bft) 97,87 %
28.02.2020 03:14 1,1 C 0,6 C 0,0 C 99 % 1014,1 hPa 0,0 l/m 0 min 0 min 0 W/m 0,0 km/h (0 Bft) 97,87 %
28.02.2020 03:16 1,1 C 0,6 C 0,0 C 99 % 1014,2 hPa 0,0 l/m 0 min 0 min 0 W/m 0,0 km/h (0 Bft) 97,87 %
28.02.2020 03:18 1,1 C 0,6 C 0,0 C 99 % 1014,2 hPa 0,2 l/m 0 min 0 min 0 W/m 0,0 km/h (0 Bft) 97,83 %
28.02.2020 03:20 1,1 C 0,6 C 0,0 C 99 % 1014,2 hPa 0,0 l/m 0 min 0 min 0 W/m 3,2 km/h (1 Bft) 100,00 %
28.02.2020 03:22 1,1 C 0,6 C 0,0 C 99 % 1014,2 hPa 0,0 l/m 0 min 0 min 0 W/m 0,0 km/h (0 Bft) 100,00 %
28.02.2020 03:24 1,1 C 0,6 C 0,0 C 99 % 1014,2 hPa 0,0 l/m 0 min 0 min 0 W/m 0,0 km/h (0 Bft) 100,00 %
28.02.2020 03:26 1,1 C 0,6 C 0,0 C 99 % 1014,2 hPa 0,0 l/m 0 min 0 min 0 W/m 0,0 km/h (0 Bft) 100,00 %
28.02.2020 03:28 1,1 C 0,0 C 0,0 C 99 % 1014,3 hPa 0,0 l/m 0 min 0 min 0 W/m 0,0 km/h (0 Bft) 100,00 %
28.02.2020 03:30 1,1 C 0,0 C -0,6 C 99 % 1014,3 hPa 0,0 l/m 0 min 0 min 0 W/m 0,0 km/h (0 Bft) 100,00 %
28.02.2020 03:32 1,1 C 0,0 C -0,6 C 99 % 1014,4 hPa 0,0 l/m 0 min 0 min 0 W/m 0,0 km/h (0 Bft) 100,00 %
28.02.2020 03:34 1,1 C 0,0 C -0,6 C 99 % 1014,4 hPa 0,0 l/m 0 min 0 min 0 W/m 0,0 km/h (0 Bft) 100,00 %
28.02.2020 03:36 1,1 C 0,0 C -0,6 C 99 % 1014,5 hPa 0,0 l/m 0 min 0 min 0 W/m 0,0 km/h (0 Bft) 97,87 %
28.02.2020 03:38 1,1 C 0,0 C -0,6 C 99 % 1014,5 hPa 0,0 l/m 0 min 0 min 0 W/m 0,0 km/h (0 Bft) 100,00 %
28.02.2020 03:40 1,1 C 0,0 C -0,6 C 99 % 1014,6 hPa 0,0 l/m 0 min 0 min 0 W/m 3,2 km/h (1 Bft) 100,00 %
28.02.2020 03:42 1,0 C 0,0 C -0,6 C 99 % 1014,5 hPa 0,0 l/m 0 min 0 min 0 W/m 0,0 km/h (0 Bft) 100,00 %
28.02.2020 03:44 1,0 C 0,0 C -0,6 C 99 % 1014,6 hPa 0,0 l/m 0 min 0 min 0 W/m 0,0 km/h (0 Bft) 100,00 %
28.02.2020 03:46 1,0 C 0,0 C -0,6 C 99 % 1014,6 hPa 0,0 l/m 0 min 0 min 0 W/m 3,2 km/h (1 Bft) 100,00 %
28.02.2020 03:48 1,0 C 0,0 C -0,6 C 99 % 1014,6 hPa 0,0 l/m 0 min 0 min 0 W/m 0,0 km/h (0 Bft) 100,00 %
28.02.2020 03:50 1,0 C 0,0 C -0,6 C 99 % 1014,7 hPa 0,0 l/m 0 min 0 min 0 W/m 0,0 km/h (0 Bft) 97,87 %
28.02.2020 03:52 1,0 C 0,0 C -0,6 C 99 % 1014,7 hPa 0,0 l/m 0 min 0 min 0 W/m 3,2 km/h (1 Bft) 100,00 %
28.02.2020 03:54 1,0 C 0,0 C -0,6 C 99 % 1014,7 hPa 0,0 l/m 0 min 0 min 0 W/m 0,0 km/h (0 Bft) 100,00 %
28.02.2020 03:56 0,9 C 0,0 C -0,6 C 99 % 1014,7 hPa 0,0 l/m 0 min 0 min 0 W/m 0,0 km/h (0 Bft) 100,00 %
28.02.2020 03:58 0,9 C 0,0 C 0,0 C 99 % 1014,7 hPa 0,0 l/m 0 min 0 min 0 W/m 3,2 km/h (1 Bft) 100,00 %
28.02.2020 04:00 1,0 C 0,6 C 0,0 C 99 % 1014,8 hPa 0,0 l/m 0 min 0 min 0 W/m 0,0 km/h (0 Bft) 97,87 %
28.02.2020 04:02 1,0 C 0,6 C 0,0 C 99 % 1014,8 hPa 0,0 l/m 0 min 0 min 0 W/m 0,0 km/h (0 Bft) 100,00 %
28.02.2020 04:04 1,0 C 0,6 C 0,0 C 99 % 1014,9 hPa 0,0 l/m 0 min 0 min 0 W/m 3,2 km/h (1 Bft) 95,74 %
28.02.2020 04:06 1,0 C 0,6 C 0,0 C 99 % 1014,8 hPa 0,0 l/m 0 min 0 min 0 W/m 12,9 km/h (3 Bft) 100,00 %
28.02.2020 04:08 1,1 C 0,6 C 0,0 C 99 % 1014,9 hPa 0,0 l/m 0 min 0 min 0 W/m 3,2 km/h (1 Bft) 100,00 %
28.02.2020 04:10 1,1 C 0,6 C 0,0 C 99 % 1015,0 hPa 0,0 l/m 0 min 0 min 0 W/m 6,4 km/h (2 Bft) 100,00 %
28.02.2020 04:12 1,1 C 0,6 C 0,0 C 99 % 1015,1 hPa 0,0 l/m 0 min 0 min 0 W/m 12,9 km/h (3 Bft) 93,62 %
28.02.2020 04:14 1,1 C 0,6 C 0,0 C 99 % 1015,0 hPa 0,0 l/m 0 min 0 min 0 W/m 6,4 km/h (2 Bft) 97,87 %
28.02.2020 04:16 1,1 C 0,6 C 0,0 C 99 % 1015,0 hPa 0,0 l/m 0 min 0 min 0 W/m 6,4 km/h (2 Bft) 100,00 %
28.02.2020 04:18 1,2 C 0,6 C 0,0 C 99 % 1015,0 hPa 0,0 l/m 0 min 0 min 0 W/m 12,9 km/h (3 Bft) 100,00 %
28.02.2020 04:20 1,2 C 0,6 C 0,0 C 99 % 1015,1 hPa 0,0 l/m 0 min 0 min 0 W/m 3,2 km/h (1 Bft) 97,87 %
28.02.2020 04:22 1,2 C 0,6 C 0,0 C 99 % 1015,1 hPa 0,0 l/m 0 min 0 min 0 W/m 19,3 km/h (3 Bft) 97,87 %
28.02.2020 04:24 1,2 C 0,6 C 0,0 C 99 % 1015,1 hPa 0,0 l/m 0 min 0 min 0 W/m 9,7 km/h (2 Bft) 95,74 %
28.02.2020 04:26 1,2 C 0,6 C 0,0 C 99 % 1015,1 hPa 0,0 l/m 0 min 0 min 0 W/m 3,2 km/h (1 Bft) 97,87 %
28.02.2020 04:28 1,3 C 0,6 C 0,0 C 99 % 1015,1 hPa 0,0 l/m 0 min 0 min 0 W/m 6,4 km/h (2 Bft) 93,48 %
28.02.2020 04:30 1,3 C 0,6 C 0,0 C 99 % 1015,1 hPa 0,0 l/m 0 min 0 min 0 W/m 12,9 km/h (3 Bft) 93,62 %
28.02.2020 04:32 1,3 C 0,6 C 0,0 C 99 % 1015,1 hPa 0,0 l/m 0 min 0 min 0 W/m 0,0 km/h (0 Bft) 95,74 %
28.02.2020 04:34 1,3 C 0,6 C 0,0 C 99 % 1015,2 hPa 0,0 l/m 0 min 0 min 0 W/m 3,2 km/h (1 Bft) 95,74 %
28.02.2020 04:36 1,3 C 0,6 C 0,0 C 99 % 1015,2 hPa 0,0 l/m 0 min 0 min 0 W/m 3,2 km/h (1 Bft) 95,74 %
28.02.2020 04:38 1,3 C 0,6 C 0,0 C 99 % 1015,3 hPa 0,0 l/m 0 min 0 min 0 W/m 12,9 km/h (3 Bft) 95,74 %
28.02.2020 04:40 1,3 C 0,6 C 0,0 C 99 % 1015,4 hPa 0,0 l/m 0 min 0 min 0 W/m 6,4 km/h (2 Bft) 93,48 %
28.02.2020 04:42 1,3 C 0,6 C 0,0 C 99 % 1015,3 hPa 0,0 l/m 0 min 0 min 0 W/m 6,4 km/h (2 Bft) 95,74 %
28.02.2020 04:44 1,3 C 0,6 C 0,0 C 99 % 1015,4 hPa 0,0 l/m 0 min 0 min 0 W/m 9,7 km/h (2 Bft) 95,74 %
28.02.2020 04:46 1,3 C 0,6 C 0,0 C 99 % 1015,5 hPa 0,0 l/m 0 min 0 min 0 W/m 0,0 km/h (0 Bft) 93,62 %
28.02.2020 04:48 1,3 C 0,6 C 0,0 C 99 % 1015,4 hPa 0,0 l/m 0 min 0 min 0 W/m 16,1 km/h (3 Bft) 93,62 %
28.02.2020 04:50 1,3 C 0,6 C 0,0 C 99 % 1015,5 hPa 0,0 l/m 0 min 0 min 0 W/m 0,0 km/h (0 Bft) 95,74 %
28.02.2020 04:52 1,3 C 0,6 C 0,0 C 99 % 1015,5 hPa 0,0 l/m 0 min 0 min 0 W/m 6,4 km/h (2 Bft) 95,65 %
28.02.2020 04:54 1,3 C 0,6 C 0,0 C 99 % 1015,6 hPa 0,0 l/m 0 min 0 min 0 W/m 0,0 km/h (0 Bft) 95,74 %
28.02.2020 04:56 1,3 C 0,6 C 0,0 C 99 % 1015,5 hPa 0,0 l/m 0 min 0 min 0 W/m 3,2 km/h (1 Bft) 95,74 %
28.02.2020 04:58 1,3 C 0,6 C 0,0 C 99 % 1015,6 hPa 0,0 l/m 0 min 0 min 0 W/m 3,2 km/h (1 Bft) 95,74 %
28.02.2020 05:00 1,3 C 0,6 C 0,0 C 99 % 1015,6 hPa 0,0 l/m 0 min 0 min 0 W/m 3,2 km/h (1 Bft) 95,74 %
28.02.2020 05:02 1,3 C 0,6 C 0,0 C 99 % 1015,7 hPa 0,0 l/m 0 min 0 min 0 W/m 3,2 km/h (1 Bft) 44,74 %
28.02.2020 05:04 1,3 C 0,6 C 0,0 C 99 % 1015,6 hPa 0,0 l/m 0 min 0 min 0 W/m 3,2 km/h (1 Bft) 95,65 %
28.02.2020 05:06 1,3 C 0,6 C 0,0 C 99 % 1015,7 hPa 0,0 l/m 0 min 0 min 0 W/m 0,0 km/h (0 Bft) 97,87 %
28.02.2020 05:08 1,3 C 0,6 C 0,0 C 99 % 1015,7 hPa 0,0 l/m 0 min 0 min 0 W/m 0,0 km/h (0 Bft) 97,87 %
28.02.2020 05:10 1,2 C 0,6 C 0,0 C 99 % 1015,8 hPa 0,0 l/m 0 min 0 min 0 W/m 3,2 km/h (1 Bft) 100,00 %
28.02.2020 05:12 1,2 C 0,6 C 0,0 C 99 % 1015,8 hPa 0,0 l/m 0 min 0 min 0 W/m 6,4 km/h (2 Bft) 100,00 %
28.02.2020 05:14 1,2 C 0,0 C -0,6 C 99 % 1015,8 hPa 0,0 l/m 0 min 0 min 0 W/m 0,0 km/h (0 Bft) 100,00 %
28.02.2020 05:16 1,2 C 0,0 C -0,6 C 99 % 1015,9 hPa 0,0 l/m 0 min 0 min 0 W/m 0,0 km/h (0 Bft) 100,00 %
28.02.2020 05:18 1,2 C 0,0 C -0,6 C 99 % 1015,9 hPa 0,0 l/m 0 min 0 min 0 W/m 0,0 km/h (0 Bft) 97,87 %
28.02.2020 05:20 1,2 C 0,0 C -0,6 C 99 % 1015,9 hPa 0,0 l/m 0 min 0 min 0 W/m 0,0 km/h (0 Bft) 100,00 %
28.02.2020 05:22 1,1 C 0,0 C -0,6 C 99 % 1016,0 hPa 0,0 l/m 0 min 0 min 0 W/m 0,0 km/h (0 Bft) 100,00 %
28.02.2020 05:24 1,1 C 0,0 C -0,6 C 99 % 1016,1 hPa 0,0 l/m 0 min 0 min 0 W/m 0,0 km/h (0 Bft) 100,00 %
28.02.2020 05:26 1,1 C 0,0 C -0,6 C 98 % 1016,1 hPa 0,0 l/m 0 min 0 min 0 W/m 3,2 km/h (1 Bft) 100,00 %
28.02.2020 05:28 1,1 C 0,0 C -0,6 C 98 % 1016,0 hPa 0,0 l/m 0 min 0 min 0 W/m 3,2 km/h (1 Bft) 97,87 %
28.02.2020 05:30 1,1 C 0,0 C -0,6 C 98 % 1016,0 hPa 0,0 l/m 0 min 0 min 0 W/m 3,2 km/h (1 Bft) 100,00 %
28.02.2020 05:32 1,1 C 0,0 C -0,6 C 98 % 1016,0 hPa 0,0 l/m 0 min 0 min 0 W/m 0,0 km/h (0 Bft) 97,87 %
28.02.2020 05:34 1,1 C 0,0 C -0,6 C 98 % 1016,1 hPa 0,0 l/m 0 min 0 min 0 W/m 0,0 km/h (0 Bft) 100,00 %
28.02.2020 05:36 1,0 C 0,0 C -0,6 C 98 % 1016,1 hPa 0,0 l/m 0 min 0 min 0 W/m 0,0 km/h (0 Bft) 97,87 %
28.02.2020 05:38 1,0 C 0,0 C -0,6 C 98 % 1016,1 hPa 0,0 l/m 0 min 0 min 0 W/m 0,0 km/h (0 Bft) 97,83 %
28.02.2020 05:40 1,0 C 0,0 C -0,6 C 98 % 1016,1 hPa 0,0 l/m 0 min 0 min 0 W/m 0,0 km/h (0 Bft) 100,00 %
28.02.2020 05:42 0,9 C 0,0 C -0,6 C 98 % 1016,2 hPa 0,0 l/m 0 min 0 min 0 W/m 3,2 km/h (1 Bft) 100,00 %
28.02.2020 05:44 0,9 C 0,0 C -0,6 C 98 % 1016,2 hPa 0,0 l/m 0 min 0 min 0 W/m 0,0 km/h (0 Bft) 100,00 %
28.02.2020 05:46 0,9 C 0,0 C -0,6 C 98 % 1016,2 hPa 0,0 l/m 0 min 0 min 0 W/m 0,0 km/h (0 Bft) 100,00 %
28.02.2020 05:48 0,9 C 0,0 C -0,6 C 98 % 1016,2 hPa 0,0 l/m 0 min 0 min 0 W/m 0,0 km/h (0 Bft) 97,87 %
28.02.2020 05:50 0,9 C 0,0 C -0,6 C 98 % 1016,2 hPa 0,0 l/m 0 min 0 min 0 W/m 0,0 km/h (0 Bft) 100,00 %
28.02.2020 05:52 0,8 C 0,0 C -0,6 C 98 % 1016,2 hPa 0,0 l/m 0 min 0 min 0 W/m 0,0 km/h (0 Bft) 97,87 %
28.02.2020 05:54 0,8 C 0,0 C -0,6 C 98 % 1016,2 hPa 0,0 l/m 0 min 0 min 0 W/m 0,0 km/h (0 Bft) 97,87 %
28.02.2020 05:56 0,8 C 0,0 C -0,6 C 98 % 1016,2 hPa 0,0 l/m 0 min 0 min 0 W/m 3,2 km/h (1 Bft) 95,74 %
28.02.2020 05:58 0,8 C 0,0 C -0,6 C 98 % 1016,3 hPa 0,0 l/m 0 min 0 min 0 W/m 0,0 km/h (0 Bft) 97,87 %
28.02.2020 06:00 0,8 C 0,0 C -0,6 C 98 % 1016,3 hPa 0,0 l/m 0 min 0 min 0 W/m 3,2 km/h (1 Bft) 97,83 %
28.02.2020 06:02 0,8 C 0,0 C -0,6 C 98 % 1016,4 hPa 0,0 l/m 0 min 0 min 0 W/m 3,2 km/h (1 Bft) 95,74 %
28.02.2020 06:04 0,8 C 0,0 C -0,6 C 98 % 1016,4 hPa 0,0 l/m 0 min 0 min 0 W/m 3,2 km/h (1 Bft) 97,87 %
28.02.2020 06:06 0,7 C 0,0 C -0,6 C 98 % 1016,3 hPa 0,0 l/m 0 min 0 min 0 W/m 0,0 km/h (0 Bft) 100,00 %
28.02.2020 06:08 0,7 C 0,0 C -0,6 C 98 % 1016,4 hPa 0,0 l/m 0 min 0 min 0 W/m 6,4 km/h (2 Bft) 100,00 %
28.02.2020 06:10 0,7 C 0,0 C -0,6 C 98 % 1016,4 hPa 0,0 l/m 0 min 0 min 0 W/m 0,0 km/h (0 Bft) 93,75 %
28.02.2020 06:12 0,7 C 0,0 C -0,6 C 98 % 1016,4 hPa 0,0 l/m 0 min 0 min 0 W/m 0,0 km/h (0 Bft) 93,62 %
28.02.2020 06:14 0,7 C 0,0 C -0,6 C 98 % 1016,4 hPa 0,0 l/m 0 min 0 min 0 W/m 3,2 km/h (1 Bft) 97,83 %
28.02.2020 06:16 0,7 C 0,0 C -0,6 C 98 % 1016,5 hPa 0,0 l/m 0 min 0 min 0 W/m 0,0 km/h (0 Bft) 97,87 %
28.02.2020 06:18 0,7 C 0,0 C -0,6 C 98 % 1016,5 hPa 0,0 l/m 0 min 0 min 0 W/m 0,0 km/h (0 Bft) 97,87 %
28.02.2020 06:20 0,7 C 0,0 C -0,6 C 98 % 1016,4 hPa 0,0 l/m 0 min 0 min 0 W/m 0,0 km/h (0 Bft) 97,87 %
28.02.2020 06:22 0,7 C 0,0 C -0,6 C 98 % 1016,4 hPa 0,0 l/m 0 min 0 min 0 W/m 6,4 km/h (2 Bft) 97,87 %
28.02.2020 06:24 0,7 C 0,0 C -0,6 C 98 % 1016,4 hPa 0,0 l/m 0 min 0 min 0 W/m 6,4 km/h (2 Bft) 97,83 %
28.02.2020 06:26 0,7 C 0,0 C -0,6 C 98 % 1016,4 hPa 0,0 l/m 0 min 0 min 0 W/m 0,0 km/h (0 Bft) 95,74 %
28.02.2020 06:28 0,7 C 0,0 C -0,6 C 98 % 1016,4 hPa 0,0 l/m 0 min 0 min 0 W/m 3,2 km/h (1 Bft) 97,87 %
28.02.2020 06:30 0,7 C 0,0 C -0,6 C 98 % 1016,5 hPa 0,0 l/m 0 min 0 min 0 W/m 0,0 km/h (0 Bft) 97,87 %
28.02.2020 06:32 0,6 C 0,0 C -0,6 C 98 % 1016,4 hPa 0,0 l/m 0 min 0 min 0 W/m 0,0 km/h (0 Bft) 97,87 %
28.02.2020 06:34 0,6 C 0,0 C -0,6 C 98 % 1016,4 hPa 0,0 l/m 0 min 0 min 0 W/m 3,2 km/h (1 Bft) 95,74 %
28.02.2020 06:36 0,6 C -0,6 C -0,6 C 98 % 1016,5 hPa 0,0 l/m 0 min 0 min 0 W/m 3,2 km/h (1 Bft) 95,65 %
28.02.2020 06:38 0,6 C -0,6 C -0,6 C 98 % 1016,4 hPa 0,0 l/m 0 min 0 min 0 W/m 3,2 km/h (1 Bft) 95,74 %
28.02.2020 06:40 0,6 C -0,6 C -0,6 C 98 % 1016,4 hPa 0,0 l/m 0 min 0 min 0 W/m 0,0 km/h (0 Bft) 97,87 %
28.02.2020 06:42 0,6 C -0,6 C -1,1 C 98 % 1016,4 hPa 0,0 l/m 0 min 0 min 0 W/m 3,2 km/h (1 Bft) 97,87 %
28.02.2020 06:44 0,6 C -0,6 C -0,6 C 98 % 1016,4 hPa 0,0 l/m 0 min 0 min 0 W/m 6,4 km/h (2 Bft) 97,87 %
28.02.2020 06:46 0,6 C -0,6 C -0,6 C 98 % 1016,4 hPa 0,0 l/m 0 min 0 min 0 W/m 0,0 km/h (0 Bft) 97,83 %
28.02.2020 06:48 0,6 C -0,6 C -0,6 C 98 % 1016,4 hPa 0,0 l/m 0 min 0 min 0 W/m 0,0 km/h (0 Bft) 95,74 %
28.02.2020 06:50 0,6 C -0,6 C -0,6 C 98 % 1016,4 hPa 0,0 l/m 0 min 0 min 0 W/m 3,2 km/h (1 Bft) 97,87 %
28.02.2020 06:52 0,6 C -0,6 C -0,6 C 98 % 1016,5 hPa 0,0 l/m 0 min 0 min 0 W/m 0,0 km/h (0 Bft) 95,74 %
28.02.2020 06:54 0,6 C 0,0 C -0,6 C 98 % 1016,5 hPa 0,0 l/m 0 min 0 min 0 W/m 3,2 km/h (1 Bft) 97,87 %
28.02.2020 06:56 0,6 C -0,6 C -0,6 C 98 % 1016,6 hPa 0,0 l/m 0 min 0 min 0 W/m 3,2 km/h (1 Bft) 97,87 %
28.02.2020 06:58 0,6 C -0,6 C -0,6 C 98 % 1016,6 hPa 0,0 l/m 0 min 0 min 0 W/m 0,0 km/h (0 Bft) 97,83 %
28.02.2020 07:00 0,6 C -0,6 C -0,6 C 98 % 1016,6 hPa 0,0 l/m 0 min 0 min 0 W/m 0,0 km/h (0 Bft) 97,87 %
28.02.2020 07:02 0,6 C -0,6 C -1,1 C 98 % 1016,7 hPa 0,0 l/m 0 min 0 min 0 W/m 0,0 km/h (0 Bft) 95,74 %
28.02.2020 07:04 0,6 C -0,6 C -1,1 C 98 % 1016,7 hPa 0,0 l/m 0 min 0 min 0 W/m 3,2 km/h (1 Bft) 95,74 %
28.02.2020 07:06 0,6 C -0,6 C -1,1 C 98 % 1016,7 hPa 0,0 l/m 0 min 0 min 0 W/m 3,2 km/h (1 Bft) 93,62 %
28.02.2020 07:08 0,6 C -0,6 C -1,1 C 98 % 1016,8 hPa 0,0 l/m 0 min 0 min 0 W/m 6,4 km/h (2 Bft) 95,74 %
28.02.2020 07:10 0,6 C -0,6 C -1,1 C 98 % 1016,8 hPa 0,0 l/m 0 min 0 min 0 W/m 0,0 km/h (0 Bft) 95,65 %
28.02.2020 07:14 0,6 C -0,6 C -0,6 C 98 % 1016,9 hPa 0,0 l/m 0 min 0 min 0 W/m 3,2 km/h (1 Bft) 96,77 %
28.02.2020 07:16 0,5 C -0,6 C -1,1 C 98 % 1016,9 hPa 0,0 l/m 0 min 0 min 0 W/m 0,0 km/h (0 Bft) 95,74 %
28.02.2020 07:18 0,5 C -0,6 C -0,6 C 98 % 1016,9 hPa 0,0 l/m 0 min 0 min 0 W/m 3,2 km/h (1 Bft) 93,48 %
28.02.2020 07:20 0,5 C -0,6 C -0,6 C 98 % 1016,9 hPa 0,0 l/m 0 min 0 min 0 W/m 9,7 km/h (2 Bft) 95,74 %
28.02.2020 07:22 0,5 C -0,6 C -0,6 C 98 % 1017,0 hPa 0,0 l/m 0 min 0 min 0 W/m 0,0 km/h (0 Bft) 95,74 %
28.02.2020 07:24 0,5 C -0,6 C -0,6 C 98 % 1017,1 hPa 0,0 l/m 0 min 0 min 0 W/m 0,0 km/h (0 Bft) 95,74 %
28.02.2020 07:26 0,5 C -0,6 C -0,6 C 98 % 1017,0 hPa 0,0 l/m 0 min 0 min 4 W/m 3,2 km/h (1 Bft) 93,62 %
28.02.2020 07:28 0,5 C -0,6 C -0,6 C 98 % 1017,1 hPa 0,0 l/m 0 min 0 min 5 W/m 6,4 km/h (2 Bft) 95,74 %
28.02.2020 07:30 0,5 C 0,0 C -0,6 C 98 % 1017,1 hPa 0,0 l/m 0 min 0 min 6 W/m 3,2 km/h (1 Bft) 95,65 %
28.02.2020 07:32 0,5 C -0,6 C -0,6 C 98 % 1017,1 hPa 0,0 l/m 0 min 0 min 7 W/m 0,0 km/h (0 Bft) 95,74 %
28.02.2020 07:34 0,5 C 0,0 C -0,6 C 98 % 1017,1 hPa 0,0 l/m 0 min 0 min 7 W/m 3,2 km/h (1 Bft) 97,87 %
28.02.2020 07:36 0,5 C 0,0 C -0,6 C 98 % 1017,1 hPa 0,0 l/m 0 min 0 min 9 W/m 3,2 km/h (1 Bft) 95,74 %
28.02.2020 07:38 0,5 C 0,0 C -0,6 C 98 % 1017,1 hPa 0,0 l/m 0 min 0 min 10 W/m 6,4 km/h (2 Bft) 95,74 %
28.02.2020 07:40 0,6 C 0,0 C -0,6 C 98 % 1017,1 hPa 0,0 l/m 0 min 0 min 11 W/m 3,2 km/h (1 Bft) 97,87 %
28.02.2020 07:42 0,6 C 0,0 C -0,6 C 98 % 1017,1 hPa 0,0 l/m 0 min 0 min 11 W/m 0,0 km/h (0 Bft) 97,83 %
28.02.2020 07:44 0,6 C 0,0 C -0,6 C 98 % 1017,1 hPa 0,0 l/m 0 min 0 min 12 W/m 0,0 km/h (0 Bft) 95,74 %
28.02.2020 07:46 0,6 C 0,0 C -0,6 C 98 % 1017,2 hPa 0,0 l/m 0 min 0 min 13 W/m 3,2 km/h (1 Bft) 97,87 %
28.02.2020 07:48 0,6 C 0,0 C -0,6 C 98 % 1017,2 hPa 0,0 l/m 0 min 0 min 14 W/m 12,9 km/h (3 Bft) 97,87 %
28.02.2020 07:50 0,6 C 0,0 C -0,6 C 98 % 1017,2 hPa 0,0 l/m 0 min 0 min 15 W/m 0,0 km/h (0 Bft) 97,87 %
28.02.2020 07:52 0,6 C 0,0 C -0,6 C 98 % 1017,2 hPa 0,0 l/m 0 min 0 min 16 W/m 0,0 km/h (0 Bft) 100,00 %
28.02.2020 07:54 0,6 C 0,0 C -0,6 C 98 % 1017,2 hPa 0,0 l/m 0 min 0 min 17 W/m 9,7 km/h (2 Bft) 100,00 %
28.02.2020 07:56 0,6 C 0,0 C -0,6 C 98 % 1017,2 hPa 0,0 l/m 0 min 0 min 18 W/m 0,0 km/h (0 Bft) 100,00 %
28.02.2020 07:58 0,6 C 0,0 C -0,6 C 98 % 1017,3 hPa 0,0 l/m 0 min 0 min 19 W/m 3,2 km/h (1 Bft) 97,87 %
28.02.2020 08:00 0,6 C 0,0 C -0,6 C 98 % 1017,3 hPa 0,0 l/m 0 min 0 min 20 W/m 3,2 km/h (1 Bft) 97,87 %
28.02.2020 08:02 0,6 C 0,0 C -0,6 C 98 % 1017,3 hPa 0,0 l/m 0 min 0 min 23 W/m 3,2 km/h (1 Bft) 97,87 %
28.02.2020 08:04 0,6 C 0,0 C -0,6 C 98 % 1017,3 hPa 0,0 l/m 0 min 0 min 25 W/m 12,9 km/h (3 Bft) 97,83 %
28.02.2020 08:06 0,6 C 0,0 C -0,6 C 98 % 1017,4 hPa 0,0 l/m 0 min 0 min 26 W/m 3,2 km/h (1 Bft) 100,00 %
28.02.2020 08:08 0,6 C 0,0 C -0,6 C 98 % 1017,4 hPa 0,0 l/m 0 min 0 min 28 W/m 3,2 km/h (1 Bft) 97,87 %
28.02.2020 08:10 0,6 C 0,0 C -0,6 C 98 % 1017,4 hPa 0,0 l/m 0 min 0 min 30 W/m 3,2 km/h (1 Bft) 100,00 %
28.02.2020 08:12 0,6 C 0,0 C -0,6 C 98 % 1017,5 hPa 0,0 l/m 0 min 0 min 32 W/m 3,2 km/h (1 Bft) 97,87 %
28.02.2020 08:14 0,6 C 0,6 C -0,6 C 98 % 1017,5 hPa 0,0 l/m 0 min 0 min 33 W/m 6,4 km/h (2 Bft) 100,00 %
28.02.2020 08:16 0,6 C 0,6 C -0,6 C 98 % 1017,5 hPa 0,0 l/m 0 min 0 min 33 W/m 6,4 km/h (2 Bft) 100,00 %
28.02.2020 08:18 0,7 C 0,6 C -0,6 C 98 % 1017,6 hPa 0,0 l/m 0 min 0 min 35 W/m 12,9 km/h (3 Bft) 100,00 %
28.02.2020 08:20 0,7 C 0,6 C -0,6 C 98 % 1017,6 hPa 0,0 l/m 0 min 0 min 36 W/m 3,2 km/h (1 Bft) 100,00 %
28.02.2020 08:22 0,7 C 0,6 C -0,6 C 98 % 1017,6 hPa 0,0 l/m 0 min 0 min 38 W/m 3,2 km/h (1 Bft) 100,00 %
28.02.2020 08:24 0,8 C 0,6 C 0,0 C 98 % 1017,6 hPa 0,0 l/m 0 min 0 min 39 W/m 6,4 km/h (2 Bft) 100,00 %
28.02.2020 08:27 0,8 C 0,6 C 0,0 C 98 % 1017,6 hPa 0,0 l/m 0 min 0 min 40 W/m 3,2 km/h (1 Bft) 98,57 %
28.02.2020 08:28 0,8 C 0,6 C 0,0 C 98 % 1017,6 hPa 0,0 l/m 0 min 0 min 40 W/m 3,2 km/h (1 Bft) 100,00 %
28.02.2020 08:30 0,8 C 0,6 C 0,0 C 98 % 1017,6 hPa 0,0 l/m 0 min 0 min 40 W/m 0,0 km/h (0 Bft) 100,00 %
28.02.2020 08:32 0,8 C 0,6 C 0,0 C 98 % 1017,7 hPa 0,0 l/m 0 min 0 min 40 W/m 12,9 km/h (3 Bft) 100,00 %
28.02.2020 08:34 0,9 C 1,1 C 0,0 C 98 % 1017,6 hPa 0,0 l/m 0 min 0 min 44 W/m 0,0 km/h (0 Bft) 100,00 %
28.02.2020 08:36 0,9 C 1,1 C 0,0 C 98 % 1017,6 hPa 0,0 l/m 0 min 0 min 47 W/m 3,2 km/h (1 Bft) 100,00 %
28.02.2020 08:38 0,9 C 1,1 C 0,0 C 98 % 1017,7 hPa 0,0 l/m 0 min 0 min 48 W/m 3,2 km/h (1 Bft) 100,00 %
28.02.2020 08:40 1,0 C 1,1 C 0,0 C 98 % 1017,7 hPa 0,0 l/m 0 min 0 min 49 W/m 0,0 km/h (0 Bft) 100,00 %
28.02.2020 08:42 1,1 C 1,1 C 0,0 C 98 % 1017,7 hPa 0,0 l/m 0 min 0 min 49 W/m 6,4 km/h (2 Bft) 100,00 %
28.02.2020 08:44 1,1 C 1,1 C 0,0 C 98 % 1017,7 hPa 0,0 l/m 0 min 0 min 48 W/m 3,2 km/h (1 Bft) 97,87 %
28.02.2020 08:46 1,1 C 1,1 C 0,0 C 98 % 1017,7 hPa 0,0 l/m 0 min 0 min 51 W/m 12,9 km/h (3 Bft) 100,00 %
28.02.2020 08:48 1,2 C 1,1 C 0,0 C 98 % 1017,7 hPa 0,0 l/m 0 min 0 min 54 W/m 3,2 km/h (1 Bft) 100,00 %
28.02.2020 08:50 1,2 C 1,1 C 0,0 C 98 % 1017,7 hPa 0,0 l/m 0 min 0 min 53 W/m 0,0 km/h (0 Bft) 97,87 %
28.02.2020 08:52 1,2 C 1,7 C 0,6 C 98 % 1017,7 hPa 0,0 l/m 0 min 0 min 55 W/m 0,0 km/h (0 Bft) 100,00 %
28.02.2020 08:54 1,2 C 1,7 C 0,6 C 98 % 1017,7 hPa 0,0 l/m 0 min 0 min 57 W/m 0,0 km/h (0 Bft) 100,00 %
28.02.2020 08:56 1,3 C 1,7 C 0,6 C 98 % 1017,7 hPa 0,0 l/m 0 min 0 min 57 W/m 3,2 km/h (1 Bft) 100,00 %
28.02.2020 08:58 1,3 C 1,7 C 0,6 C 98 % 1017,8 hPa 0,0 l/m 0 min 0 min 54 W/m 0,0 km/h (0 Bft) 65,96 %
28.02.2020 09:00 1,3 C 1,7 C 0,6 C 98 % 1017,8 hPa 0,0 l/m 0 min 0 min 52 W/m 0,0 km/h (0 Bft) 89,19 %
28.02.2020 09:02 1,4 C 1,7 C 0,6 C 98 % 1017,8 hPa 0,0 l/m 0 min 0 min 49 W/m 0,0 km/h (0 Bft) 100,00 %
28.02.2020 09:04 1,4 C 1,7 C 0,6 C 97 % 1017,8 hPa 0,0 l/m 0 min 0 min 54 W/m 3,2 km/h (1 Bft) 97,87 %
28.02.2020 09:06 1,4 C 1,7 C 0,6 C 97 % 1017,8 hPa 0,0 l/m 0 min 0 min 59 W/m 6,4 km/h (2 Bft) 97,87 %
28.02.2020 09:08 1,4 C 1,7 C 0,6 C 97 % 1017,8 hPa 0,0 l/m 0 min 0 min 65 W/m 3,2 km/h (1 Bft) 97,87 %
28.02.2020 09:10 1,5 C 2,2 C 0,6 C 98 % 1017,8 hPa 0,0 l/m 0 min 0 min 70 W/m 0,0 km/h (0 Bft) 100,00 %
28.02.2020 09:12 1,6 C 2,2 C 0,6 C 98 % 1017,8 hPa 0,0 l/m 0 min 0 min 75 W/m 0,0 km/h (0 Bft) 100,00 %
28.02.2020 09:14 1,6 C 2,2 C 0,6 C 97 % 1017,8 hPa 0,0 l/m 0 min 0 min 81 W/m 16,1 km/h (3 Bft) 97,87 %
28.02.2020 09:16 1,6 C 2,2 C 1,1 C 97 % 1017,8 hPa 0,0 l/m 0 min 0 min 87 W/m 3,2 km/h (1 Bft) 95,65 %
28.02.2020 09:18 1,7 C 2,2 C 1,1 C 97 % 1017,9 hPa 0,0 l/m 0 min 0 min 93 W/m 12,9 km/h (3 Bft) 100,00 %
28.02.2020 09:20 1,7 C 2,8 C 1,1 C 97 % 1017,9 hPa 0,0 l/m 0 min 0 min 113 W/m 16,1 km/h (3 Bft) 97,87 %
28.02.2020 09:22 1,8 C 3,3 C 1,7 C 97 % 1017,9 hPa 0,0 l/m 2 min 0 min 203 W/m 3,2 km/h (1 Bft) 95,74 %
28.02.2020 09:24 1,8 C 4,4 C 1,7 C 97 % 1017,9 hPa 0,0 l/m 2 min 0 min 213 W/m 3,2 km/h (1 Bft) 95,74 %
28.02.2020 09:26 1,9 C 5,0 C 1,7 C 97 % 1017,9 hPa 0,2 l/m 2 min 0 min 218 W/m 0,0 km/h (0 Bft) 95,65 %
28.02.2020 09:28 1,9 C 5,0 C 1,7 C 97 % 1017,9 hPa 0,0 l/m 2 min 0 min 222 W/m 3,2 km/h (1 Bft) 95,74 %
28.02.2020 09:30 2,1 C 5,0 C 1,7 C 97 % 1017,9 hPa 0,0 l/m 2 min 0 min 217 W/m 12,9 km/h (3 Bft) 95,74 %
28.02.2020 09:32 2,1 C 5,0 C 1,7 C 97 % 1017,9 hPa 0,0 l/m 2 min 0 min 203 W/m 0,0 km/h (0 Bft) 95,74 %
28.02.2020 09:34 2,2 C 5,0 C 2,2 C 97 % 1017,9 hPa 0,2 l/m 2 min 0 min 202 W/m 0,0 km/h (0 Bft) 95,74 %
28.02.2020 09:36 2,3 C 4,4 C 2,8 C 97 % 1017,9 hPa 0,0 l/m 2 min 0 min 185 W/m 0,0 km/h (0 Bft) 95,74 %
28.02.2020 09:38 2,3 C 4,4 C 3,3 C 97 % 1017,9 hPa 0,0 l/m 2 min 0 min 192 W/m 0,0 km/h (0 Bft) 93,48 %
28.02.2020 09:40 2,4 C 4,4 C 3,3 C 97 % 1017,9 hPa 0,0 l/m 2 min 0 min 183 W/m 0,0 km/h (0 Bft) 93,62 %
28.02.2020 09:42 2,4 C 4,4 C 2,8 C 97 % 1017,8 hPa 0,2 l/m 2 min 0 min 189 W/m 0,0 km/h (0 Bft) 91,49 %
28.02.2020 09:44 2,5 C 5,0 C 2,8 C 97 % 1017,9 hPa 0,0 l/m 2 min 0 min 211 W/m 0,0 km/h (0 Bft) 93,62 %
28.02.2020 09:46 2,6 C 5,0 C 2,8 C 97 % 1017,8 hPa 0,0 l/m 2 min 0 min 222 W/m 0,0 km/h (0 Bft) 93,62 %
28.02.2020 09:48 2,6 C 5,6 C 2,8 C 97 % 1017,9 hPa 0,0 l/m 2 min 0 min 237 W/m 3,2 km/h (1 Bft) 91,30 %
28.02.2020 09:50 2,7 C 5,6 C 2,8 C 97 % 1017,9 hPa 0,2 l/m 2 min 0 min 244 W/m 0,0 km/h (0 Bft) 93,62 %
28.02.2020 09:52 2,8 C 6,1 C 2,8 C 97 % 1017,8 hPa 0,0 l/m 2 min 0 min 249 W/m 0,0 km/h (0 Bft) 93,62 %
28.02.2020 09:54 2,8 C 6,1 C 2,8 C 97 % 1017,8 hPa 0,0 l/m 2 min 0 min 251 W/m 0,0 km/h (0 Bft) 91,49 %
28.02.2020 09:56 2,9 C 5,6 C 2,8 C 97 % 1017,8 hPa 0,0 l/m 2 min 0 min 237 W/m 3,2 km/h (1 Bft) 93,62 %
28.02.2020 09:58 2,9 C 5,0 C 2,8 C 97 % 1017,8 hPa 0,2 l/m 2 min 0 min 219 W/m 0,0 km/h (0 Bft) 93,62 %
28.02.2020 10:00 3,0 C 5,0 C 2,8 C 96 % 1017,7 hPa 0,0 l/m 2 min 0 min 200 W/m 0,0 km/h (0 Bft) 93,48 %
28.02.2020 10:02 3,1 C 4,4 C 2,8 C 96 % 1017,7 hPa 0,0 l/m 2 min 0 min 202 W/m 22,5 km/h (4 Bft) 93,62 %
28.02.2020 10:04 3,1 C 4,4 C 2,8 C 96 % 1017,8 hPa 0,2 l/m 2 min 0 min 207 W/m 16,1 km/h (3 Bft) 95,74 %
28.02.2020 10:06 3,1 C 4,4 C 2,8 C 96 % 1017,8 hPa 0,0 l/m 2 min 0 min 214 W/m 9,7 km/h (2 Bft) 100,00 %
28.02.2020 10:08 3,1 C 4,4 C 2,8 C 96 % 1017,8 hPa 0,0 l/m 2 min 0 min 206 W/m 0,0 km/h (0 Bft) 93,62 %
28.02.2020 10:10 3,1 C 5,0 C 2,8 C 95 % 1017,9 hPa 0,0 l/m 2 min 0 min 201 W/m 0,0 km/h (0 Bft) 97,87 %
28.02.2020 10:12 3,2 C 5,0 C 2,8 C 95 % 1017,8 hPa 0,0 l/m 2 min 0 min 195 W/m 3,2 km/h (1 Bft) 93,48 %
28.02.2020 10:14 3,2 C 5,0 C 2,8 C 95 % 1017,9 hPa 0,0 l/m 2 min 0 min 200 W/m 16,1 km/h (3 Bft) 95,74 %
28.02.2020 10:16 3,2 C 5,0 C 2,8 C 95 % 1017,9 hPa 0,2 l/m 2 min 0 min 211 W/m 16,1 km/h (3 Bft) 95,74 %
28.02.2020 10:18 3,3 C 5,0 C 2,8 C 95 % 1017,9 hPa 0,0 l/m 2 min 0 min 229 W/m 16,1 km/h (3 Bft) 97,87 %
28.02.2020 10:20 3,3 C 5,0 C 2,8 C 94 % 1018,0 hPa 0,0 l/m 2 min 0 min 231 W/m 25,7 km/h (4 Bft) 97,87 %
28.02.2020 10:22 3,3 C 5,0 C 2,8 C 94 % 1018,0 hPa 0,0 l/m 2 min 0 min 243 W/m 22,5 km/h (4 Bft) 95,74 %
28.02.2020 10:24 3,3 C 5,6 C 3,3 C 94 % 1018,0 hPa 0,0 l/m 2 min 0 min 279 W/m 19,3 km/h (3 Bft) 97,83 %
28.02.2020 10:26 3,4 C 6,1 C 3,3 C 94 % 1018,0 hPa 0,2 l/m 2 min 0 min 301 W/m 16,1 km/h (3 Bft) 93,62 %
28.02.2020 10:28 3,4 C 6,1 C 3,3 C 94 % 1018,0 hPa 0,0 l/m 2 min 0 min 287 W/m 22,5 km/h (4 Bft) 97,87 %
28.02.2020 10:30 3,5 C 6,1 C 3,3 C 93 % 1018,0 hPa 0,0 l/m 2 min 0 min 278 W/m 16,1 km/h (3 Bft) 100,00 %
28.02.2020 10:32 3,6 C 6,1 C 3,9 C 93 % 1018,0 hPa 0,0 l/m 2 min 0 min 270 W/m 16,1 km/h (3 Bft) 100,00 %
28.02.2020 10:34 3,6 C 5,6 C 3,3 C 93 % 1018,1 hPa 0,0 l/m 2 min 0 min 263 W/m 19,3 km/h (3 Bft) 100,00 %
28.02.2020 10:36 3,7 C 5,6 C 3,3 C 93 % 1018,1 hPa 0,0 l/m 2 min 0 min 241 W/m 19,3 km/h (3 Bft) 100,00 %
28.02.2020 10:38 3,8 C 5,6 C 3,9 C 93 % 1018,0 hPa 0,2 l/m 2 min 0 min 251 W/m 12,9 km/h (3 Bft) 100,00 %
28.02.2020 10:40 3,8 C 6,1 C 3,9 C 93 % 1018,0 hPa 0,0 l/m 2 min 0 min 291 W/m 16,1 km/h (3 Bft) 100,00 %
28.02.2020 10:42 3,9 C 6,7 C 3,9 C 92 % 1018,0 hPa 0,0 l/m 2 min 0 min 327 W/m 25,7 km/h (4 Bft) 100,00 %
28.02.2020 10:44 3,9 C 7,2 C 3,9 C 92 % 1018,0 hPa 0,0 l/m 2 min 0 min 395 W/m 19,3 km/h (3 Bft) 100,00 %
28.02.2020 10:46 4,0 C 7,8 C 3,9 C 92 % 1018,0 hPa 0,0 l/m 2 min 0 min 409 W/m 29,0 km/h (5 Bft) 100,00 %
28.02.2020 10:48 4,1 C 8,3 C 4,4 C 92 % 1018,0 hPa 0,0 l/m 2 min 0 min 411 W/m 16,1 km/h (3 Bft) 100,00 %
28.02.2020 10:50 4,2 C 7,2 C 3,9 C 92 % 1018,1 hPa 0,2 l/m 2 min 0 min 397 W/m 25,7 km/h (4 Bft) 100,00 %
28.02.2020 10:52 4,2 C 7,8 C 3,9 C 91 % 1018,0 hPa 0,0 l/m 2 min 0 min 388 W/m 19,3 km/h (3 Bft) 100,00 %
28.02.2020 10:54 4,3 C 7,2 C 4,4 C 91 % 1017,9 hPa 0,0 l/m 2 min 0 min 366 W/m 19,3 km/h (3 Bft) 100,00 %
28.02.2020 10:56 4,4 C 7,2 C 4,4 C 91 % 1017,9 hPa 0,0 l/m 2 min 0 min 331 W/m 19,3 km/h (3 Bft) 100,00 %
28.02.2020 10:58 4,4 C 7,2 C 4,4 C 91 % 1017,9 hPa 0,0 l/m 2 min 0 min 305 W/m 16,1 km/h (3 Bft) 100,00 %
28.02.2020 11:00 4,6 C 6,7 C 4,4 C 91 % 1017,9 hPa 0,0 l/m 2 min 0 min 316 W/m 16,1 km/h (3 Bft) 95,74 %
28.02.2020 11:02 4,6 C 7,2 C 4,4 C 90 % 1017,8 hPa 0,0 l/m 2 min 0 min 323 W/m 16,1 km/h (3 Bft) 100,00 %
28.02.2020 11:04 4,7 C 7,2 C 4,4 C 90 % 1017,8 hPa 0,0 l/m 2 min 0 min 345 W/m 22,5 km/h (4 Bft) 100,00 %
28.02.2020 11:06 4,7 C 7,2 C 4,4 C 89 % 1017,8 hPa 0,0 l/m 2 min 0 min 354 W/m 22,5 km/h (4 Bft) 100,00 %
28.02.2020 11:08 4,8 C 7,2 C 4,4 C 89 % 1017,8 hPa 0,0 l/m 2 min 0 min 358 W/m 19,3 km/h (3 Bft) 100,00 %
28.02.2020 11:10 4,8 C 7,8 C 4,4 C 89 % 1017,9 hPa 0,0 l/m 2 min 0 min 368 W/m 22,5 km/h (4 Bft) 100,00 %
28.02.2020 11:12 4,8 C 7,8 C 4,4 C 89 % 1017,8 hPa 0,0 l/m 2 min 0 min 384 W/m 12,9 km/h (3 Bft) 100,00 %
28.02.2020 11:14 4,9 C 7,2 C 4,4 C 88 % 1017,8 hPa 0,0 l/m 2 min 0 min 387 W/m 22,5 km/h (4 Bft) 97,87 %
28.02.2020 11:16 4,9 C 7,2 C 4,4 C 88 % 1017,9 hPa 0,0 l/m 2 min 0 min 376 W/m 19,3 km/h (3 Bft) 100,00 %
28.02.2020 11:18 5,0 C 7,2 C 4,4 C 88 % 1017,9 hPa 0,0 l/m 2 min 0 min 349 W/m 19,3 km/h (3 Bft) 100,00 %
28.02.2020 11:20 5,1 C 7,2 C 5,0 C 87 % 1017,9 hPa 0,0 l/m 2 min 0 min 336 W/m 25,7 km/h (4 Bft) 97,87 %
28.02.2020 11:22 5,1 C 6,7 C 4,4 C 87 % 1017,9 hPa 0,0 l/m 2 min 0 min 342 W/m 25,7 km/h (4 Bft) 100,00 %
28.02.2020 11:24 5,1 C 6,7 C 4,4 C 87 % 1017,9 hPa 0,0 l/m 2 min 0 min 334 W/m 25,7 km/h (4 Bft) 100,00 %
28.02.2020 11:26 5,1 C 6,7 C 4,4 C 86 % 1018,0 hPa 0,0 l/m 2 min 0 min 338 W/m 29,0 km/h (5 Bft) 100,00 %
28.02.2020 11:28 5,1 C 6,7 C 4,4 C 86 % 1018,0 hPa 0,0 l/m 2 min 0 min 352 W/m 29,0 km/h (5 Bft) 100,00 %
28.02.2020 11:30 5,2 C 7,2 C 5,0 C 85 % 1018,1 hPa 0,0 l/m 2 min 0 min 362 W/m 16,1 km/h (3 Bft) 100,00 %
28.02.2020 11:32 5,2 C 7,8 C 5,6 C 86 % 1018,0 hPa 0,0 l/m 2 min 0 min 371 W/m 19,3 km/h (3 Bft) 100,00 %
28.02.2020 11:34 5,3 C 7,8 C 5,6 C 86 % 1018,0 hPa 0,0 l/m 2 min 0 min 345 W/m 22,5 km/h (4 Bft) 100,00 %
28.02.2020 11:36 5,4 C 7,8 C 5,6 C 86 % 1018,0 hPa 0,0 l/m 2 min 0 min 316 W/m 12,9 km/h (3 Bft) 97,87 %
28.02.2020 11:38 5,4 C 7,2 C 5,6 C 86 % 1018,0 hPa 0,0 l/m 2 min 0 min 301 W/m 16,1 km/h (3 Bft) 100,00 %
28.02.2020 11:40 5,5 C 7,2 C 5,6 C 86 % 1018,0 hPa 0,0 l/m 2 min 0 min 313 W/m 25,7 km/h (4 Bft) 100,00 %
28.02.2020 11:42 5,6 C 7,2 C 5,6 C 85 % 1018,0 hPa 0,0 l/m 2 min 0 min 325 W/m 12,9 km/h (3 Bft) 100,00 %
28.02.2020 11:44 5,6 C 7,2 C 5,6 C 85 % 1018,1 hPa 0,0 l/m 2 min 0 min 334 W/m 29,0 km/h (5 Bft) 97,87 %
28.02.2020 11:46 5,6 C 7,2 C 5,6 C 85 % 1018,0 hPa 0,0 l/m 2 min 0 min 353 W/m 19,3 km/h (3 Bft) 95,74 %
28.02.2020 11:48 5,7 C 7,8 C 5,6 C 85 % 1018,0 hPa 0,0 l/m 2 min 0 min 335 W/m 25,7 km/h (4 Bft) 97,87 %
28.02.2020 11:50 5,7 C 7,2 C 5,6 C 84 % 1017,9 hPa 0,0 l/m 2 min 0 min 318 W/m 22,5 km/h (4 Bft) 95,74 %
28.02.2020 11:52 5,8 C 7,2 C 5,6 C 84 % 1017,9 hPa 0,0 l/m 2 min 0 min 336 W/m 19,3 km/h (3 Bft) 97,83 %
28.02.2020 11:54 5,8 C 7,8 C 5,6 C 84 % 1017,9 hPa 0,0 l/m 2 min 0 min 348 W/m 19,3 km/h (3 Bft) 93,62 %
28.02.2020 11:56 5,9 C 7,8 C 6,1 C 84 % 1017,9 hPa 0,0 l/m 2 min 0 min 351 W/m 22,5 km/h (4 Bft) 97,87 %
28.02.2020 11:58 5,9 C 7,8 C 6,1 C 84 % 1017,9 hPa 0,0 l/m 2 min 0 min 348 W/m 22,5 km/h (4 Bft) 97,87 %
28.02.2020 12:00 5,9 C 7,2 C 6,1 C 84 % 1017,8 hPa 0,0 l/m 2 min 0 min 344 W/m 25,7 km/h (4 Bft) 93,62 %
28.02.2020 12:02 5,9 C 7,8 C 6,1 C 83 % 1017,8 hPa 0,0 l/m 2 min 0 min 353 W/m 19,3 km/h (3 Bft) 95,74 %
28.02.2020 12:04 6,0 C 8,3 C 6,1 C 84 % 1017,7 hPa 0,0 l/m 2 min 0 min 359 W/m 19,3 km/h (3 Bft) 95,65 %
28.02.2020 12:06 6,1 C 8,3 C 6,1 C 83 % 1017,8 hPa 0,0 l/m 2 min 0 min 353 W/m 16,1 km/h (3 Bft) 95,74 %
28.02.2020 12:08 6,1 C 8,3 C 6,1 C 83 % 1017,7 hPa 0,0 l/m 2 min 0 min 352 W/m 19,3 km/h (3 Bft) 95,74 %
28.02.2020 12:10 6,1 C 8,3 C 6,1 C 83 % 1017,7 hPa 0,0 l/m 2 min 0 min 342 W/m 25,7 km/h (4 Bft) 95,74 %
28.02.2020 12:12 6,2 C 7,8 C 6,1 C 83 % 1017,7 hPa 0,0 l/m 2 min 0 min 343 W/m 32,2 km/h (5 Bft) 93,62 %
28.02.2020 12:14 6,2 C 7,8 C 6,1 C 82 % 1017,6 hPa 0,0 l/m 2 min 0 min 355 W/m 32,2 km/h (5 Bft) 95,74 %
28.02.2020 12:16 6,2 C 7,8 C 6,1 C 82 % 1017,6 hPa 0,0 l/m 2 min 0 min 359 W/m 22,5 km/h (4 Bft) 95,65 %
28.02.2020 12:18 6,2 C 7,8 C 6,1 C 81 % 1017,5 hPa 0,0 l/m 2 min 0 min 354 W/m 19,3 km/h (3 Bft) 93,62 %
28.02.2020 12:20 6,3 C 7,8 C 6,1 C 81 % 1017,5 hPa 0,0 l/m 2 min 0 min 356 W/m 25,7 km/h (4 Bft) 95,74 %
28.02.2020 12:22 6,3 C 7,8 C 6,1 C 81 % 1017,5 hPa 0,0 l/m 2 min 0 min 363 W/m 29,0 km/h (5 Bft) 95,74 %
28.02.2020 12:24 6,3 C 7,8 C 6,1 C 80 % 1017,5 hPa 0,0 l/m 2 min 0 min 370 W/m 32,2 km/h (5 Bft) 97,87 %
28.02.2020 12:26 6,3 C 8,3 C 6,1 C 80 % 1017,4 hPa 0,0 l/m 2 min 0 min 404 W/m 25,7 km/h (4 Bft) 97,87 %
28.02.2020 12:28 6,4 C 7,8 C 6,1 C 80 % 1017,4 hPa 0,0 l/m 2 min 0 min 388 W/m 29,0 km/h (5 Bft) 95,65 %
28.02.2020 12:30 6,4 C 7,8 C 6,1 C 79 % 1017,4 hPa 0,0 l/m 2 min 0 min 339 W/m 32,2 km/h (5 Bft) 95,74 %
28.02.2020 12:32 6,4 C 7,8 C 6,1 C 79 % 1017,4 hPa 0,0 l/m 2 min 0 min 310 W/m 22,5 km/h (4 Bft) 97,87 %
28.02.2020 12:34 6,4 C 7,8 C 6,7 C 79 % 1017,3 hPa 0,0 l/m 2 min 0 min 301 W/m 19,3 km/h (3 Bft) 100,00 %
28.02.2020 12:36 6,5 C 7,8 C 6,7 C 79 % 1017,2 hPa 0,0 l/m 2 min 0 min 295 W/m 19,3 km/h (3 Bft) 93,62 %
28.02.2020 12:38 6,5 C 7,8 C 6,7 C 79 % 1017,2 hPa 0,0 l/m 2 min 0 min 292 W/m 25,7 km/h (4 Bft) 97,87 %
28.02.2020 12:40 6,5 C 7,2 C 6,7 C 79 % 1017,1 hPa 0,0 l/m 2 min 0 min 295 W/m 38,6 km/h (5 Bft) 100,00 %
28.02.2020 12:42 6,5 C 7,2 C 6,7 C 77 % 1017,1 hPa 0,0 l/m 2 min 0 min 299 W/m 29,0 km/h (5 Bft) 97,87 %
28.02.2020 12:44 6,5 C 7,2 C 6,7 C 77 % 1017,1 hPa 0,0 l/m 2 min 0 min 318 W/m 25,7 km/h (4 Bft) 100,00 %
28.02.2020 12:46 6,5 C 7,2 C 6,7 C 77 % 1017,1 hPa 0,0 l/m 2 min 0 min 338 W/m 38,6 km/h (5 Bft) 97,87 %
28.02.2020 12:48 6,5 C 7,2 C 6,7 C 77 % 1017,0 hPa 0,0 l/m 2 min 0 min 353 W/m 32,2 km/h (5 Bft) 100,00 %
28.02.2020 12:50 6,5 C 7,8 C 7,2 C 77 % 1017,0 hPa 0,0 l/m 2 min 0 min 360 W/m 22,5 km/h (4 Bft) 100,00 %
28.02.2020 12:52 6,5 C 7,8 C 7,2 C 77 % 1017,0 hPa 0,0 l/m 2 min 0 min 351 W/m 29,0 km/h (5 Bft) 97,87 %
28.02.2020 12:54 6,5 C 7,8 C 7,2 C 77 % 1016,9 hPa 0,0 l/m 2 min 0 min 336 W/m 29,0 km/h (5 Bft) 97,87 %
28.02.2020 12:56 6,5 C 7,8 C 7,2 C 76 % 1016,9 hPa 0,0 l/m 2 min 0 min 307 W/m 19,3 km/h (3 Bft) 100,00 %
28.02.2020 12:58 6,5 C 7,2 C 6,7 C 76 % 1016,8 hPa 0,0 l/m 2 min 0 min 297 W/m 25,7 km/h (4 Bft) 100,00 %
28.02.2020 13:00 6,6 C 7,8 C 6,7 C 77 % 1016,8 hPa 0,0 l/m 2 min 0 min 289 W/m 16,1 km/h (3 Bft) 100,00 %
28.02.2020 13:02 6,6 C 7,8 C 6,7 C 77 % 1016,7 hPa 0,0 l/m 2 min 0 min 287 W/m 29,0 km/h (5 Bft) 97,83 %
28.02.2020 13:04 6,6 C 7,8 C 7,2 C 77 % 1016,7 hPa 0,0 l/m 2 min 0 min 288 W/m 19,3 km/h (3 Bft) 100,00 %
28.02.2020 13:06 6,6 C 7,2 C 7,2 C 77 % 1016,7 hPa 0,0 l/m 2 min 0 min 293 W/m 32,2 km/h (5 Bft) 100,00 %
28.02.2020 13:08 6,6 C 7,2 C 7,2 C 76 % 1016,7 hPa 0,0 l/m 2 min 0 min 293 W/m 25,7 km/h (4 Bft) 100,00 %
28.02.2020 13:10 6,7 C 7,2 C 7,2 C 76 % 1016,6 hPa 0,0 l/m 2 min 0 min 299 W/m 22,5 km/h (4 Bft) 97,87 %
28.02.2020 13:12 6,7 C 7,2 C 6,7 C 76 % 1016,6 hPa 0,0 l/m 2 min 0 min 300 W/m 22,5 km/h (4 Bft) 97,87 %
28.02.2020 13:14 6,7 C 7,8 C 7,2 C 76 % 1016,5 hPa 0,0 l/m 2 min 0 min 284 W/m 22,5 km/h (4 Bft) 100,00 %
28.02.2020 13:16 6,7 C 7,2 C 6,7 C 76 % 1016,5 hPa 0,0 l/m 2 min 0 min 287 W/m 25,7 km/h (4 Bft) 97,87 %
28.02.2020 13:18 6,7 C 7,2 C 6,7 C 76 % 1016,5 hPa 0,0 l/m 2 min 0 min 299 W/m 29,0 km/h (5 Bft) 100,00 %
28.02.2020 13:20 6,7 C 7,2 C 6,7 C 75 % 1016,4 hPa 0,0 l/m 2 min 0 min 303 W/m 25,7 km/h (4 Bft) 100,00 %
28.02.2020 13:22 6,7 C 7,8 C 6,7 C 75 % 1016,4 hPa 0,0 l/m 2 min 0 min 298 W/m 29,0 km/h (5 Bft) 100,00 %
28.02.2020 13:24 6,7 C 7,8 C 6,7 C 75 % 1016,3 hPa 0,0 l/m 2 min 0 min 309 W/m 25,7 km/h (4 Bft) 100,00 %
28.02.2020 13:26 6,7 C 7,8 C 6,7 C 75 % 1016,4 hPa 0,0 l/m 2 min 0 min 316 W/m 22,5 km/h (4 Bft) 100,00 %
28.02.2020 13:28 6,7 C 7,8 C 6,7 C 75 % 1016,3 hPa 0,0 l/m 2 min 0 min 305 W/m 19,3 km/h (3 Bft) 100,00 %
28.02.2020 13:30 6,7 C 7,8 C 6,7 C 75 % 1016,3 hPa 0,0 l/m 2 min 0 min 302 W/m 22,5 km/h (4 Bft) 97,87 %
28.02.2020 13:32 6,8 C 7,8 C 6,7 C 75 % 1016,3 hPa 0,0 l/m 2 min 0 min 289 W/m 22,5 km/h (4 Bft) 100,00 %
28.02.2020 13:34 6,8 C 7,2 C 6,7 C 74 % 1016,2 hPa 0,0 l/m 2 min 0 min 274 W/m 32,2 km/h (5 Bft) 100,00 %
28.02.2020 13:36 6,8 C 7,8 C 6,7 C 74 % 1016,1 hPa 0,0 l/m 2 min 0 min 270 W/m 19,3 km/h (3 Bft) 100,00 %
28.02.2020 13:38 6,8 C 7,8 C 6,7 C 75 % 1016,1 hPa 0,0 l/m 2 min 0 min 271 W/m 22,5 km/h (4 Bft) 100,00 %
28.02.2020 13:40 6,8 C 7,2 C 6,7 C 75 % 1016,0 hPa 0,0 l/m 2 min 0 min 262 W/m 22,5 km/h (4 Bft) 100,00 %
28.02.2020 13:42 6,9 C 7,8 C 6,7 C 75 % 1015,9 hPa 0,0 l/m 2 min 0 min 267 W/m 19,3 km/h (3 Bft) 100,00 %
28.02.2020 13:44 6,9 C 7,8 C 6,7 C 75 % 1015,9 hPa 0,0 l/m 2 min 0 min 272 W/m 25,7 km/h (4 Bft) 95,74 %
28.02.2020 13:46 6,9 C 7,8 C 7,2 C 75 % 1015,8 hPa 0,0 l/m 2 min 0 min 276 W/m 16,1 km/h (3 Bft) 95,74 %
28.02.2020 13:48 6,9 C 7,8 C 7,2 C 75 % 1015,8 hPa 0,0 l/m 2 min 0 min 283 W/m 19,3 km/h (3 Bft) 100,00 %
28.02.2020 13:50 6,9 C 7,8 C 7,2 C 75 % 1015,8 hPa 0,0 l/m 2 min 0 min 305 W/m 25,7 km/h (4 Bft) 100,00 %
28.02.2020 13:52 7,0 C 7,8 C 7,2 C 75 % 1015,7 hPa 0,0 l/m 2 min 0 min 322 W/m 25,7 km/h (4 Bft) 97,87 %
28.02.2020 13:54 7,0 C 8,3 C 7,2 C 75 % 1015,7 hPa 0,0 l/m 2 min 0 min 339 W/m 25,7 km/h (4 Bft) 97,87 %
28.02.2020 13:56 7,1 C 8,3 C 7,2 C 75 % 1015,7 hPa 0,0 l/m 2 min 0 min 361 W/m 25,7 km/h (4 Bft) 97,87 %
28.02.2020 13:58 7,1 C 8,3 C 7,2 C 75 % 1015,6 hPa 0,0 l/m 2 min 0 min 372 W/m 32,2 km/h (5 Bft) 97,87 %
28.02.2020 14:00 7,1 C 8,3 C 7,2 C 74 % 1015,7 hPa 0,0 l/m 2 min 0 min 357 W/m 29,0 km/h (5 Bft) 97,83 %
28.02.2020 14:02 7,1 C 8,3 C 7,2 C 74 % 1015,6 hPa 0,0 l/m 2 min 0 min 361 W/m 29,0 km/h (5 Bft) 95,74 %
28.02.2020 14:04 7,2 C 8,9 C 7,2 C 74 % 1015,5 hPa 0,0 l/m 2 min 0 min 366 W/m 19,3 km/h (3 Bft) 93,62 %
28.02.2020 14:06 7,2 C 8,9 C 7,2 C 74 % 1015,5 hPa 0,0 l/m 2 min 0 min 375 W/m 32,2 km/h (5 Bft) 97,87 %
28.02.2020 14:08 7,3 C 9,4 C 7,8 C 74 % 1015,5 hPa 0,0 l/m 2 min 0 min 361 W/m 19,3 km/h (3 Bft) 95,74 %
28.02.2020 14:10 7,3 C 8,3 C 7,2 C 74 % 1015,5 hPa 0,0 l/m 2 min 0 min 334 W/m 32,2 km/h (5 Bft) 95,74 %
28.02.2020 14:12 7,3 C 8,3 C 7,2 C 73 % 1015,5 hPa 0,0 l/m 2 min 0 min 312 W/m 25,7 km/h (4 Bft) 91,30 %
28.02.2020 14:14 7,4 C 8,3 C 7,2 C 73 % 1015,5 hPa 0,0 l/m 2 min 0 min 311 W/m 35,4 km/h (5 Bft) 93,62 %
28.02.2020 14:16 7,4 C 8,3 C 7,2 C 73 % 1015,5 hPa 0,0 l/m 2 min 0 min 328 W/m 32,2 km/h (5 Bft) 97,87 %
28.02.2020 14:18 7,4 C 8,3 C 7,2 C 73 % 1015,5 hPa 0,0 l/m 2 min 0 min 324 W/m 32,2 km/h (5 Bft) 97,87 %
28.02.2020 14:20 7,4 C 8,9 C 7,2 C 73 % 1015,4 hPa 0,0 l/m 2 min 0 min 336 W/m 22,5 km/h (4 Bft) 95,74 %
28.02.2020 14:22 7,4 C 8,9 C 7,2 C 73 % 1015,5 hPa 0,0 l/m 2 min 0 min 333 W/m 25,7 km/h (4 Bft) 93,62 %
28.02.2020 14:24 7,5 C 8,9 C 7,2 C 73 % 1015,4 hPa 0,0 l/m 2 min 0 min 317 W/m 19,3 km/h (3 Bft) 63,04 %
28.02.2020 14:26 7,5 C 8,3 C 7,2 C 73 % 1015,4 hPa 0,0 l/m 2 min 0 min 307 W/m 29,0 km/h (5 Bft) 86,84 %
28.02.2020 14:28 7,6 C 8,3 C 7,2 C 72 % 1015,3 hPa 0,0 l/m 2 min 0 min 293 W/m 25,7 km/h (4 Bft) 93,62 %
28.02.2020 14:30 7,5 C 7,8 C 7,2 C 72 % 1015,4 hPa 0,0 l/m 2 min 0 min 274 W/m 38,6 km/h (5 Bft) 89,36 %
28.02.2020 14:32 7,5 C 7,8 C 7,2 C 71 % 1015,4 hPa 0,0 l/m 2 min 0 min 264 W/m 25,7 km/h (4 Bft) 91,49 %
28.02.2020 14:34 7,5 C 7,8 C 7,2 C 71 % 1015,3 hPa 0,0 l/m 2 min 0 min 254 W/m 32,2 km/h (5 Bft) 93,62 %
28.02.2020 14:36 7,5 C 7,8 C 7,2 C 71 % 1015,3 hPa 0,0 l/m 2 min 0 min 248 W/m 22,5 km/h (4 Bft) 95,65 %
28.02.2020 14:38 7,5 C 7,8 C 7,2 C 72 % 1015,3 hPa 0,0 l/m 2 min 0 min 244 W/m 19,3 km/h (3 Bft) 95,74 %
28.02.2020 14:40 7,5 C 7,8 C 7,2 C 72 % 1015,3 hPa 0,0 l/m 2 min 0 min 236 W/m 19,3 km/h (3 Bft) 95,74 %
28.02.2020 14:42 7,5 C 7,8 C 7,2 C 72 % 1015,2 hPa 0,0 l/m 2 min 0 min 226 W/m 19,3 km/h (3 Bft) 93,62 %
28.02.2020 14:44 7,5 C 7,8 C 7,2 C 72 % 1015,2 hPa 0,0 l/m 2 min 0 min 218 W/m 22,5 km/h (4 Bft) 97,87 %
28.02.2020 14:46 7,5 C 7,8 C 7,2 C 72 % 1015,2 hPa 0,0 l/m 0 min 0 min 210 W/m 22,5 km/h (4 Bft) 97,83 %
28.02.2020 14:48 7,5 C 7,8 C 7,2 C 72 % 1015,1 hPa 0,0 l/m 0 min 0 min 206 W/m 16,1 km/h (3 Bft) 95,74 %
28.02.2020 14:50 7,5 C 7,8 C 7,2 C 71 % 1015,1 hPa 0,0 l/m 0 min 0 min 205 W/m 29,0 km/h (5 Bft) 91,49 %
28.02.2020 14:52 7,5 C 7,8 C 7,2 C 71 % 1015,1 hPa 0,0 l/m 0 min 0 min 201 W/m 19,3 km/h (3 Bft) 95,74 %
28.02.2020 14:54 7,5 C 7,2 C 7,2 C 71 % 1015,1 hPa 0,0 l/m 0 min 0 min 194 W/m 29,0 km/h (5 Bft) 95,74 %
28.02.2020 14:56 7,5 C 7,8 C 7,2 C 71 % 1015,0 hPa 0,0 l/m 0 min 0 min 190 W/m 22,5 km/h (4 Bft) 95,74 %
28.02.2020 14:58 7,5 C 7,2 C 7,2 C 71 % 1014,9 hPa 0,0 l/m 0 min 0 min 185 W/m 32,2 km/h (5 Bft) 93,48 %
28.02.2020 15:00 7,5 C 7,2 C 6,7 C 71 % 1014,9 hPa 0,0 l/m 0 min 0 min 178 W/m 25,7 km/h (4 Bft) 95,74 %
28.02.2020 15:02 7,5 C 7,8 C 7,2 C 72 % 1014,8 hPa 0,0 l/m 0 min 0 min 170 W/m 19,3 km/h (3 Bft) 91,49 %
28.02.2020 15:04 7,5 C 7,2 C 7,2 C 72 % 1014,8 hPa 0,0 l/m 0 min 0 min 160 W/m 29,0 km/h (5 Bft) 95,74 %
28.02.2020 15:06 7,5 C 7,2 C 6,7 C 72 % 1014,7 hPa 0,0 l/m 0 min 0 min 154 W/m 22,5 km/h (4 Bft) 95,74 %
28.02.2020 15:08 7,4 C 7,2 C 6,7 C 72 % 1014,7 hPa 0,2 l/m 0 min 0 min 151 W/m 25,7 km/h (4 Bft) 97,87 %
28.02.2020 15:10 7,4 C 7,2 C 6,7 C 71 % 1014,6 hPa 0,0 l/m 0 min 0 min 148 W/m 29,0 km/h (5 Bft) 97,83 %
28.02.2020 15:12 7,4 C 7,2 C 6,7 C 72 % 1014,7 hPa 0,0 l/m 0 min 0 min 144 W/m 29,0 km/h (5 Bft) 97,87 %
28.02.2020 15:14 7,4 C 6,7 C 6,7 C 71 % 1014,6 hPa 0,0 l/m 0 min 0 min 139 W/m 29,0 km/h (5 Bft) 97,87 %
28.02.2020 15:16 7,3 C 6,7 C 6,7 C 71 % 1014,6 hPa 0,0 l/m 0 min 0 min 134 W/m 29,0 km/h (5 Bft) 97,87 %
28.02.2020 15:18 7,3 C 6,7 C 6,7 C 71 % 1014,6 hPa 0,0 l/m 0 min 0 min 130 W/m 22,5 km/h (4 Bft) 97,87 %
28.02.2020 15:20 7,3 C 6,7 C 6,7 C 71 % 1014,6 hPa 0,0 l/m 0 min 0 min 125 W/m 35,4 km/h (5 Bft) 100,00 %
28.02.2020 15:22 7,2 C 6,7 C 6,1 C 71 % 1014,5 hPa 0,0 l/m 0 min 0 min 119 W/m 32,2 km/h (5 Bft) 100,00 %
28.02.2020 15:24 7,2 C 6,7 C 6,1 C 71 % 1014,6 hPa 0,0 l/m 0 min 0 min 112 W/m 29,0 km/h (5 Bft) 100,00 %
28.02.2020 15:26 7,2 C 6,7 C 6,1 C 71 % 1014,5 hPa 0,0 l/m 0 min 0 min 107 W/m 29,0 km/h (5 Bft) 100,00 %
28.02.2020 15:28 7,2 C 6,7 C 6,1 C 71 % 1014,5 hPa 0,0 l/m 0 min 0 min 104 W/m 29,0 km/h (5 Bft) 97,87 %
28.02.2020 15:30 7,1 C 6,7 C 6,1 C 71 % 1014,5 hPa 0,0 l/m 0 min 0 min 102 W/m 29,0 km/h (5 Bft) 100,00 %
28.02.2020 15:32 7,1 C 6,7 C 6,1 C 71 % 1014,4 hPa 0,0 l/m 0 min 0 min 102 W/m 19,3 km/h (3 Bft) 100,00 %
28.02.2020 15:34 7,1 C 6,7 C 6,1 C 72 % 1014,4 hPa 0,0 l/m 0 min 0 min 101 W/m 22,5 km/h (4 Bft) 100,00 %
28.02.2020 15:36 7,1 C 6,7 C 6,1 C 72 % 1014,4 hPa 0,0 l/m 0 min 0 min 100 W/m 38,6 km/h (5 Bft) 100,00 %
28.02.2020 15:38 7,1 C 6,7 C 6,1 C 72 % 1014,3 hPa 0,0 l/m 0 min 0 min 100 W/m 25,7 km/h (4 Bft) 100,00 %
28.02.2020 15:40 7,0 C 6,7 C 6,1 C 72 % 1014,3 hPa 0,0 l/m 0 min 0 min 99 W/m 25,7 km/h (4 Bft) 100,00 %
28.02.2020 15:42 7,0 C 6,7 C 6,1 C 72 % 1014,3 hPa 0,0 l/m 0 min 0 min 95 W/m 25,7 km/h (4 Bft) 100,00 %
28.02.2020 15:44 7,0 C 6,7 C 6,1 C 72 % 1014,2 hPa 0,0 l/m 0 min 0 min 91 W/m 29,0 km/h (5 Bft) 100,00 %
28.02.2020 15:46 7,0 C 6,7 C 6,1 C 72 % 1014,2 hPa 0,0 l/m 0 min 0 min 89 W/m 19,3 km/h (3 Bft) 100,00 %
28.02.2020 15:48 6,9 C 6,7 C 6,1 C 73 % 1014,2 hPa 0,0 l/m 0 min 0 min 87 W/m 25,7 km/h (4 Bft) 100,00 %
28.02.2020 15:50 6,9 C 6,7 C 6,1 C 73 % 1014,1 hPa 0,0 l/m 0 min 0 min 84 W/m 22,5 km/h (4 Bft) 100,00 %
28.02.2020 15:52 6,9 C 6,7 C 6,1 C 73 % 1014,1 hPa 0,0 l/m 0 min 0 min 82 W/m 22,5 km/h (4 Bft) 100,00 %
28.02.2020 15:54 6,9 C 6,7 C 6,1 C 73 % 1014,1 hPa 0,0 l/m 0 min 0 min 78 W/m 25,7 km/h (4 Bft) 100,00 %
28.02.2020 15:56 6,9 C 6,1 C 6,1 C 72 % 1014,0 hPa 0,0 l/m 0 min 0 min 75 W/m 25,7 km/h (4 Bft) 100,00 %
28.02.2020 15:58 6,9 C 6,1 C 6,1 C 72 % 1014,0 hPa 0,0 l/m 0 min 0 min 72 W/m 29,0 km/h (5 Bft) 100,00 %
28.02.2020 16:00 6,9 C 6,1 C 5,6 C 72 % 1013,9 hPa 0,0 l/m 0 min 0 min 72 W/m 35,4 km/h (5 Bft) 100,00 %
28.02.2020 16:02 6,8 C 6,1 C 5,6 C 72 % 1013,9 hPa 0,0 l/m 0 min 0 min 72 W/m 29,0 km/h (5 Bft) 51,22 %
28.02.2020 16:04 6,8 C 6,1 C 5,6 C 72 % 1014,0 hPa 0,0 l/m 0 min 0 min 72 W/m 25,7 km/h (4 Bft) 95,74 %
28.02.2020 16:06 6,8 C 6,1 C 5,6 C 72 % 1013,9 hPa 0,0 l/m 0 min 0 min 70 W/m 38,6 km/h (5 Bft) 97,87 %
28.02.2020 16:08 6,8 C 6,1 C 5,6 C 72 % 1013,8 hPa 0,0 l/m 0 min 0 min 70 W/m 22,5 km/h (4 Bft) 100,00 %
28.02.2020 16:10 6,8 C 6,1 C 5,6 C 72 % 1013,7 hPa 0,0 l/m 0 min 0 min 69 W/m 41,8 km/h (6 Bft) 100,00 %
28.02.2020 16:12 6,8 C 6,1 C 5,6 C 72 % 1013,7 hPa 0,0 l/m 0 min 0 min 66 W/m 35,4 km/h (5 Bft) 100,00 %
28.02.2020 16:14 6,7 C 6,1 C 5,6 C 72 % 1013,6 hPa 0,0 l/m 0 min 0 min 63 W/m 22,5 km/h (4 Bft) 100,00 %
28.02.2020 16:16 6,7 C 6,1 C 5,6 C 72 % 1013,6 hPa 0,0 l/m 0 min 0 min 62 W/m 25,7 km/h (4 Bft) 100,00 %
28.02.2020 16:18 6,7 C 6,1 C 5,6 C 72 % 1013,5 hPa 0,0 l/m 0 min 0 min 61 W/m 25,7 km/h (4 Bft) 100,00 %
28.02.2020 16:20 6,7 C 6,1 C 5,6 C 72 % 1013,5 hPa 0,0 l/m 0 min 0 min 59 W/m 32,2 km/h (5 Bft) 100,00 %
28.02.2020 16:22 6,7 C 6,1 C 5,6 C 72 % 1013,4 hPa 0,0 l/m 0 min 0 min 57 W/m 22,5 km/h (4 Bft) 97,87 %
28.02.2020 16:24 6,7 C 6,1 C 5,6 C 72 % 1013,4 hPa 0,0 l/m 0 min 0 min 56 W/m 19,3 km/h (3 Bft) 100,00 %
28.02.2020 16:26 6,7 C 6,1 C 5,6 C 73 % 1013,4 hPa 0,0 l/m 0 min 0 min 57 W/m 19,3 km/h (3 Bft) 100,00 %
28.02.2020 16:28 6,7 C 6,1 C 5,6 C 73 % 1013,3 hPa 0,0 l/m 0 min 0 min 60 W/m 25,7 km/h (4 Bft) 95,74 %
28.02.2020 16:30 6,7 C 6,1 C 5,6 C 74 % 1013,2 hPa 0,0 l/m 0 min 0 min 62 W/m 29,0 km/h (5 Bft) 97,87 %
28.02.2020 16:32 6,6 C 6,1 C 5,6 C 74 % 1013,2 hPa 0,0 l/m 0 min 0 min 62 W/m 25,7 km/h (4 Bft) 95,65 %
28.02.2020 16:34 6,6 C 6,1 C 5,6 C 74 % 1013,2 hPa 0,0 l/m 0 min 0 min 60 W/m 22,5 km/h (4 Bft) 97,87 %
28.02.2020 16:36 6,6 C 6,1 C 5,6 C 74 % 1013,2 hPa 0,0 l/m 0 min 0 min 57 W/m 19,3 km/h (3 Bft) 97,87 %
28.02.2020 16:38 6,6 C 6,1 C 5,6 C 74 % 1013,2 hPa 0,0 l/m 0 min 0 min 54 W/m 25,7 km/h (4 Bft) 97,87 %
28.02.2020 16:40 6,6 C 6,1 C 5,6 C 74 % 1013,1 hPa 0,0 l/m 0 min 0 min 52 W/m 22,5 km/h (4 Bft) 97,87 %
28.02.2020 16:42 6,6 C 6,1 C 5,6 C 74 % 1013,1 hPa 0,0 l/m 0 min 0 min 49 W/m 22,5 km/h (4 Bft) 97,83 %
28.02.2020 16:44 6,5 C 6,1 C 5,6 C 74 % 1013,0 hPa 0,0 l/m 0 min 0 min 47 W/m 22,5 km/h (4 Bft) 97,87 %
28.02.2020 16:46 6,5 C 6,1 C 5,6 C 74 % 1013,0 hPa 0,0 l/m 0 min 0 min 45 W/m 25,7 km/h (4 Bft) 97,87 %
28.02.2020 16:48 6,5 C 6,1 C 5,6 C 74 % 1013,0 hPa 0,0 l/m 0 min 0 min 45 W/m 22,5 km/h (4 Bft) 97,87 %
28.02.2020 16:50 6,5 C 5,6 C 5,6 C 74 % 1012,9 hPa 0,0 l/m 0 min 0 min 44 W/m 25,7 km/h (4 Bft) 93,62 %
28.02.2020 16:52 6,5 C 5,6 C 5,0 C 74 % 1012,9 hPa 0,0 l/m 0 min 0 min 43 W/m 19,3 km/h (3 Bft) 97,87 %
28.02.2020 16:54 6,5 C 5,6 C 5,0 C 74 % 1012,8 hPa 0,0 l/m 0 min 0 min 41 W/m 25,7 km/h (4 Bft) 97,83 %
28.02.2020 16:56 6,4 C 5,6 C 5,0 C 74 % 1012,8 hPa 0,0 l/m 0 min 0 min 39 W/m 22,5 km/h (4 Bft) 95,74 %
28.02.2020 16:58 6,4 C 5,6 C 5,0 C 74 % 1012,8 hPa 0,0 l/m 0 min 0 min 37 W/m 29,0 km/h (5 Bft) 95,74 %
28.02.2020 17:00 6,4 C 5,6 C 5,0 C 74 % 1012,7 hPa 0,0 l/m 0 min 0 min 33 W/m 25,7 km/h (4 Bft) 95,74 %
28.02.2020 17:02 6,4 C 5,6 C 5,0 C 74 % 1012,7 hPa 0,0 l/m 0 min 0 min 32 W/m 29,0 km/h (5 Bft) 97,87 %
28.02.2020 17:04 6,3 C 5,6 C 5,0 C 74 % 1012,7 hPa 0,0 l/m 0 min 0 min 29 W/m 19,3 km/h (3 Bft) 97,62 %
28.02.2020 17:06 6,3 C 5,6 C 5,0 C 74 % 1012,6 hPa 0,0 l/m 0 min 0 min 28 W/m 25,7 km/h (4 Bft) 95,74 %
28.02.2020 17:08 6,3 C 5,6 C 5,0 C 73 % 1012,5 hPa 0,0 l/m 0 min 0 min 26 W/m 25,7 km/h (4 Bft) 91,49 %
28.02.2020 17:10 6,3 C 5,6 C 5,0 C 73 % 1012,5 hPa 0,0 l/m 0 min 0 min 25 W/m 19,3 km/h (3 Bft) 95,74 %
28.02.2020 17:12 6,3 C 5,6 C 5,0 C 74 % 1012,5 hPa 0,0 l/m 0 min 0 min 24 W/m 22,5 km/h (4 Bft) 93,48 %
28.02.2020 17:14 6,3 C 5,6 C 5,0 C 74 % 1012,4 hPa 0,0 l/m 0 min 0 min 22 W/m 22,5 km/h (4 Bft) 95,74 %
28.02.2020 17:16 6,3 C 5,6 C 5,0 C 74 % 1012,4 hPa 0,0 l/m 0 min 0 min 20 W/m 32,2 km/h (5 Bft) 97,87 %
28.02.2020 17:18 6,3 C 5,6 C 5,0 C 74 % 1012,4 hPa 0,0 l/m 0 min 0 min 17 W/m 29,0 km/h (5 Bft) 97,87 %
28.02.2020 17:20 6,2 C 5,6 C 5,0 C 74 % 1012,3 hPa 0,0 l/m 0 min 0 min 13 W/m 22,5 km/h (4 Bft) 95,74 %
28.02.2020 17:22 6,2 C 5,6 C 5,0 C 74 % 1012,2 hPa 0,0 l/m 0 min 0 min 11 W/m 16,1 km/h (3 Bft) 80,85 %
28.02.2020 17:24 6,2 C 5,6 C 5,0 C 75 % 1012,1 hPa 0,0 l/m 0 min 0 min 11 W/m 16,1 km/h (3 Bft) 70,73 %
28.02.2020 17:26 6,2 C 5,6 C 5,0 C 75 % 1012,1 hPa 0,0 l/m 0 min 0 min 9 W/m 25,7 km/h (4 Bft) 97,87 %
28.02.2020 17:28 6,2 C 5,6 C 5,0 C 75 % 1012,1 hPa 0,0 l/m 0 min 0 min 8 W/m 16,1 km/h (3 Bft) 97,87 %
28.02.2020 17:30 6,2 C 5,6 C 5,0 C 75 % 1012,0 hPa 0,0 l/m 0 min 0 min 7 W/m 19,3 km/h (3 Bft) 97,87 %
28.02.2020 17:32 6,2 C 5,6 C 5,0 C 75 % 1012,0 hPa 0,0 l/m 0 min 0 min 7 W/m 19,3 km/h (3 Bft) 95,74 %
28.02.2020 17:34 6,2 C 5,6 C 4,4 C 76 % 1011,9 hPa 0,0 l/m 0 min 0 min 7 W/m 19,3 km/h (3 Bft) 97,83 %
28.02.2020 17:36 6,1 C 5,6 C 4,4 C 76 % 1011,8 hPa 0,0 l/m 0 min 0 min 7 W/m 19,3 km/h (3 Bft) 97,87 %
28.02.2020 17:38 6,1 C 5,0 C 4,4 C 76 % 1011,8 hPa 0,0 l/m 0 min 0 min 7 W/m 22,5 km/h (4 Bft) 97,87 %
28.02.2020 17:40 6,1 C 5,0 C 4,4 C 76 % 1011,7 hPa 0,0 l/m 0 min 0 min 5 W/m 22,5 km/h (4 Bft) 97,87 %
28.02.2020 17:42 6,1 C 5,0 C 4,4 C 77 % 1011,6 hPa 0,0 l/m 0 min 0 min 5 W/m 19,3 km/h (3 Bft) 95,74 %
28.02.2020 17:44 6,1 C 5,0 C 4,4 C 77 % 1011,5 hPa 0,0 l/m 0 min 0 min 5 W/m 22,5 km/h (4 Bft) 95,74 %
28.02.2020 17:46 6,1 C 5,0 C 4,4 C 77 % 1011,5 hPa 0,0 l/m 0 min 0 min 1 W/m 12,9 km/h (3 Bft) 95,65 %
28.02.2020 17:48 6,1 C 5,0 C 4,4 C 77 % 1011,5 hPa 0,0 l/m 0 min 0 min 0 W/m 19,3 km/h (3 Bft) 95,74 %
28.02.2020 17:50 6,0 C 5,0 C 4,4 C 78 % 1011,4 hPa 0,0 l/m 0 min 2 min 0 W/m 12,9 km/h (3 Bft) 95,74 %
28.02.2020 17:52 6,0 C 5,0 C 4,4 C 78 % 1011,3 hPa 0,0 l/m 0 min 0 min 0 W/m 25,7 km/h (4 Bft) 91,49 %
28.02.2020 17:54 6,0 C 5,0 C 4,4 C 78 % 1011,4 hPa 0,0 l/m 0 min 2 min 0 W/m 12,9 km/h (3 Bft) 97,87 %
28.02.2020 17:56 6,0 C 4,4 C 3,9 C 79 % 1011,4 hPa 0,0 l/m 0 min 2 min 0 W/m 22,5 km/h (4 Bft) 97,87 %
28.02.2020 17:58 6,0 C 4,4 C 3,9 C 79 % 1011,4 hPa 0,0 l/m 0 min 2 min 0 W/m 22,5 km/h (4 Bft) 97,83 %
28.02.2020 18:00 5,9 C 4,4 C 3,9 C 79 % 1011,4 hPa 0,0 l/m 0 min 2 min 0 W/m 54,7 km/h (7 Bft) 97,87 %
28.02.2020 18:02 5,8 C 3,3 C 3,3 C 79 % 1011,4 hPa 0,0 l/m 0 min 2 min 0 W/m 64,4 km/h (8 Bft) 95,74 %
28.02.2020 18:04 5,8 C 2,8 C 2,8 C 80 % 1011,4 hPa 0,0 l/m 0 min 2 min 0 W/m 35,4 km/h (5 Bft) 97,87 %
28.02.2020 18:07 5,6 C 2,8 C 2,8 C 81 % 1011,1 hPa 0,0 l/m 0 min 3 min 0 W/m 41,8 km/h (6 Bft) 97,87 %
28.02.2020 18:08 5,6 C 2,8 C 2,8 C 81 % 1011,1 hPa 0,0 l/m 0 min 1 min 0 W/m 41,8 km/h (6 Bft) 98,94 %
28.02.2020 18:10 5,5 C 2,8 C 2,2 C 81 % 1011,1 hPa 0,0 l/m 0 min 2 min 0 W/m 35,4 km/h (5 Bft) 97,83 %
28.02.2020 18:12 5,4 C 2,8 C 2,2 C 82 % 1011,0 hPa 0,0 l/m 0 min 2 min 0 W/m 29,0 km/h (5 Bft) 97,87 %
28.02.2020 18:14 5,3 C 2,8 C 2,2 C 82 % 1010,8 hPa 0,0 l/m 0 min 2 min 0 W/m 35,4 km/h (5 Bft) 97,87 %
28.02.2020 18:16 5,3 C 2,8 C 2,2 C 83 % 1010,8 hPa 0,0 l/m 0 min 2 min 0 W/m 38,6 km/h (5 Bft) 97,87 %
28.02.2020 18:18 5,2 C 2,8 C 2,2 C 83 % 1010,7 hPa 0,0 l/m 0 min 2 min 0 W/m 35,4 km/h (5 Bft) 97,87 %
28.02.2020 18:20 5,1 C 2,8 C 2,2 C 83 % 1010,6 hPa 0,0 l/m 0 min 2 min 0 W/m 29,0 km/h (5 Bft) 97,87 %
28.02.2020 18:22 5,1 C 2,8 C 2,2 C 83 % 1010,5 hPa 0,0 l/m 0 min 2 min 0 W/m 38,6 km/h (5 Bft) 97,83 %
28.02.2020 18:24 5,0 C 2,8 C 2,2 C 83 % 1010,5 hPa 0,0 l/m 0 min 2 min 0 W/m 38,6 km/h (5 Bft) 97,87 %
28.02.2020 18:26 4,9 C 2,8 C 2,2 C 83 % 1010,4 hPa 0,0 l/m 0 min 2 min 0 W/m 38,6 km/h (5 Bft) 95,74 %
28.02.2020 18:28 4,9 C 2,8 C 2,2 C 83 % 1010,3 hPa 0,2 l/m 0 min 2 min 0 W/m 35,4 km/h (5 Bft) 97,87 %
28.02.2020 18:30 4,8 C 2,2 C 2,2 C 83 % 1010,3 hPa 0,0 l/m 0 min 2 min 0 W/m 35,4 km/h (5 Bft) 97,87 %
28.02.2020 18:32 4,8 C 2,2 C 2,2 C 83 % 1010,2 hPa 0,0 l/m 0 min 2 min 0 W/m 41,8 km/h (6 Bft) 93,62 %
28.02.2020 18:34 4,8 C 2,2 C 2,2 C 83 % 1010,2 hPa 0,0 l/m 0 min 2 min 0 W/m 38,6 km/h (5 Bft) 97,83 %
28.02.2020 18:36 4,8 C 2,8 C 2,2 C 83 % 1010,1 hPa 0,0 l/m 0 min 2 min 0 W/m 41,8 km/h (6 Bft) 97,87 %
28.02.2020 18:38 4,8 C 2,8 C 2,2 C 83 % 1010,1 hPa 0,0 l/m 0 min 2 min 0 W/m 35,4 km/h (5 Bft) 95,74 %
28.02.2020 18:40 4,8 C 2,8 C 2,2 C 83 % 1010,1 hPa 0,0 l/m 0 min 2 min 0 W/m 51,5 km/h (7 Bft) 97,87 %
28.02.2020 18:42 4,8 C 2,8 C 2,2 C 84 % 1010,1 hPa 0,0 l/m 0 min 2 min 0 W/m 38,6 km/h (5 Bft) 97,87 %
28.02.2020 18:44 4,8 C 2,8 C 2,2 C 84 % 1010,1 hPa 0,0 l/m 0 min 2 min 0 W/m 29,0 km/h (5 Bft) 97,83 %
28.02.2020 18:45 4,8 C 2,8 C 2,2 C 84 % 1010,0 hPa 0,0 l/m 0 min 1 min 0 W/m 38,6 km/h (5 Bft) 100,00 %
28.02.2020 18:48 4,8 C 2,8 C 2,2 C 84 % 1010,0 hPa 0,0 l/m 0 min 3 min 0 W/m 35,4 km/h (5 Bft) 96,15 %
28.02.2020 18:50 4,8 C 2,8 C 2,2 C 85 % 1009,9 hPa 0,0 l/m 0 min 2 min 0 W/m 41,8 km/h (6 Bft) 97,83 %
28.02.2020 18:52 4,8 C 2,8 C 2,2 C 85 % 1010,0 hPa 0,0 l/m 0 min 2 min 0 W/m 32,2 km/h (5 Bft) 97,83 %
28.02.2020 18:54 4,8 C 2,8 C 2,2 C 85 % 1009,9 hPa 0,0 l/m 0 min 2 min 0 W/m 41,8 km/h (6 Bft) 100,00 %
28.02.2020 18:56 4,8 C 2,8 C 2,2 C 85 % 1009,9 hPa 0,2 l/m 0 min 2 min 0 W/m 41,8 km/h (6 Bft) 100,00 %
28.02.2020 18:58 4,8 C 2,8 C 2,2 C 86 % 1009,8 hPa 0,0 l/m 0 min 2 min 0 W/m 41,8 km/h (6 Bft) 100,00 %
28.02.2020 19:00 4,8 C 2,8 C 2,2 C 86 % 1009,9 hPa 0,0 l/m 0 min 2 min 0 W/m 41,8 km/h (6 Bft) 100,00 %
28.02.2020 19:02 4,8 C 2,8 C 2,2 C 86 % 1009,8 hPa 0,0 l/m 0 min 2 min 0 W/m 38,6 km/h (5 Bft) 97,87 %
28.02.2020 19:04 4,8 C 2,8 C 2,2 C 87 % 1009,7 hPa 0,0 l/m 0 min 2 min 0 W/m 41,8 km/h (6 Bft) 97,83 %
28.02.2020 19:06 4,7 C 2,8 C 2,2 C 87 % 1009,5 hPa 0,2 l/m 0 min 2 min 0 W/m 35,4 km/h (5 Bft) 97,87 %
28.02.2020 19:08 4,7 C 2,8 C 2,2 C 87 % 1009,5 hPa 0,0 l/m 0 min 2 min 0 W/m 41,8 km/h (6 Bft) 100,00 %
28.02.2020 19:10 4,7 C 2,8 C 2,2 C 87 % 1009,5 hPa 0,0 l/m 0 min 2 min 0 W/m 38,6 km/h (5 Bft) 97,87 %
28.02.2020 19:12 4,6 C 2,8 C 2,2 C 88 % 1009,4 hPa 0,0 l/m 0 min 2 min 0 W/m 41,8 km/h (6 Bft) 95,74 %
28.02.2020 19:14 4,6 C 2,8 C 2,2 C 88 % 1009,3 hPa 0,0 l/m 0 min 2 min 0 W/m 54,7 km/h (7 Bft) 100,00 %
28.02.2020 19:16 4,6 C 2,8 C 2,2 C 88 % 1009,2 hPa 0,0 l/m 0 min 2 min 0 W/m 35,4 km/h (5 Bft) 100,00 %
28.02.2020 19:18 4,6 C 2,8 C 2,2 C 88 % 1009,2 hPa 0,2 l/m 0 min 2 min 0 W/m 45,1 km/h (6 Bft) 100,00 %
28.02.2020 19:20 4,5 C 2,8 C 2,2 C 89 % 1009,1 hPa 0,0 l/m 0 min 2 min 0 W/m 48,3 km/h (6 Bft) 97,87 %
28.02.2020 19:22 4,5 C 2,8 C 2,2 C 89 % 1009,1 hPa 0,0 l/m 0 min 2 min 0 W/m 32,2 km/h (5 Bft) 97,87 %
28.02.2020 19:24 4,4 C 2,8 C 2,2 C 89 % 1009,0 hPa 0,0 l/m 0 min 2 min 0 W/m 41,8 km/h (6 Bft) 97,87 %
28.02.2020 19:26 4,4 C 2,8 C 2,2 C 89 % 1009,0 hPa 0,0 l/m 0 min 2 min 0 W/m 51,5 km/h (7 Bft) 93,62 %
28.02.2020 19:28 4,4 C 2,8 C 2,2 C 90 % 1008,8 hPa 0,2 l/m 0 min 2 min 0 W/m 61,2 km/h (7 Bft) 97,83 %
28.02.2020 19:30 4,4 C 2,8 C 2,2 C 90 % 1008,8 hPa 0,0 l/m 0 min 2 min 0 W/m 41,8 km/h (6 Bft) 97,87 %
28.02.2020 19:32 4,3 C 2,8 C 2,2 C 90 % 1008,7 hPa 0,0 l/m 0 min 2 min 0 W/m 54,7 km/h (7 Bft) 97,87 %
28.02.2020 19:34 4,3 C 2,8 C 2,2 C 90 % 1008,7 hPa 0,0 l/m 0 min 2 min 0 W/m 32,2 km/h (5 Bft) 93,62 %
28.02.2020 19:36 4,3 C 2,8 C 2,2 C 90 % 1008,7 hPa 0,0 l/m 0 min 2 min 0 W/m 41,8 km/h (6 Bft) 95,74 %
28.02.2020 19:38 4,3 C 2,8 C 2,2 C 90 % 1008,5 hPa 0,2 l/m 0 min 2 min 0 W/m 45,1 km/h (6 Bft) 97,87 %
28.02.2020 19:40 4,3 C 2,8 C 2,2 C 90 % 1008,5 hPa 0,0 l/m 0 min 2 min 0 W/m 41,8 km/h (6 Bft) 95,65 %
28.02.2020 19:42 4,3 C 2,8 C 2,2 C 91 % 1008,4 hPa 0,2 l/m 0 min 2 min 0 W/m 41,8 km/h (6 Bft) 95,74 %
28.02.2020 19:44 4,3 C 2,8 C 2,2 C 91 % 1008,3 hPa 0,0 l/m 0 min 2 min 0 W/m 35,4 km/h (5 Bft) 93,62 %
28.02.2020 19:46 4,2 C 2,8 C 2,2 C 91 % 1008,2 hPa 0,0 l/m 0 min 2 min 0 W/m 35,4 km/h (5 Bft) 93,62 %
28.02.2020 19:48 4,2 C 2,8 C 2,2 C 91 % 1008,1 hPa 0,2 l/m 0 min 2 min 0 W/m 29,0 km/h (5 Bft) 93,62 %
28.02.2020 19:50 4,2 C 2,2 C 2,2 C 91 % 1008,1 hPa 0,0 l/m 0 min 2 min 0 W/m 35,4 km/h (5 Bft) 95,65 %
28.02.2020 19:52 4,1 C 2,2 C 2,2 C 91 % 1008,0 hPa 0,2 l/m 0 min 2 min 0 W/m 41,8 km/h (6 Bft) 93,62 %
28.02.2020 19:54 4,1 C 2,2 C 2,2 C 92 % 1008,0 hPa 0,0 l/m 0 min 2 min 0 W/m 51,5 km/h (7 Bft) 94,29 %
28.02.2020 19:56 4,1 C 2,2 C 2,2 C 92 % 1007,8 hPa 0,0 l/m 0 min 2 min 0 W/m 45,1 km/h (6 Bft) 93,62 %
28.02.2020 19:58 4,0 C 2,2 C 1,7 C 92 % 1007,7 hPa 0,2 l/m 0 min 2 min 0 W/m 51,5 km/h (7 Bft) 96,30 %
28.02.2020 20:00 3,9 C 2,2 C 1,7 C 92 % 1007,7 hPa 0,0 l/m 0 min 2 min 0 W/m 57,9 km/h (7 Bft) 95,74 %
28.02.2020 20:02 3,9 C 2,2 C 1,7 C 92 % 1007,6 hPa 0,2 l/m 0 min 2 min 0 W/m 51,5 km/h (7 Bft) 90,00 %
28.02.2020 20:04 3,9 C 2,2 C 1,7 C 92 % 1007,6 hPa 0,0 l/m 0 min 2 min 0 W/m 45,1 km/h (6 Bft) 93,75 %
28.02.2020 20:06 3,9 C 2,2 C 1,7 C 92 % 1007,4 hPa 0,0 l/m 0 min 2 min 0 W/m 29,0 km/h (5 Bft) 97,14 %
28.02.2020 20:08 3,8 C 2,2 C 1,7 C 93 % 1007,6 hPa 0,0 l/m 0 min 2 min 0 W/m 48,3 km/h (6 Bft) 94,55 %
28.02.2020 20:10 3,8 C 2,2 C 2,2 C 92 % 1007,5 hPa 0,0 l/m 0 min 2 min 0 W/m 45,1 km/h (6 Bft) 97,96 %
28.02.2020 20:12 3,8 C 2,2 C 2,2 C 93 % 1007,4 hPa 0,0 l/m 0 min 2 min 0 W/m 38,6 km/h (5 Bft) 97,87 %
28.02.2020 20:14 3,8 C 2,2 C 2,2 C 93 % 1007,4 hPa 0,2 l/m 0 min 2 min 0 W/m 35,4 km/h (5 Bft) 95,83 %
28.02.2020 20:16 3,8 C 2,2 C 2,2 C 93 % 1007,2 hPa 0,0 l/m 0 min 2 min 0 W/m 41,8 km/h (6 Bft) 97,14 %
28.02.2020 20:18 3,8 C 2,2 C 2,2 C 93 % 1007,2 hPa 0,2 l/m 0 min 2 min 0 W/m 38,6 km/h (5 Bft) 97,87 %
28.02.2020 20:20 3,8 C 2,2 C 2,2 C 93 % 1007,2 hPa 0,0 l/m 0 min 2 min 0 W/m 38,6 km/h (5 Bft) 97,87 %
28.02.2020 20:22 3,8 C 2,2 C 2,2 C 93 % 1007,1 hPa 0,0 l/m 0 min 2 min 0 W/m 41,8 km/h (6 Bft) 100,00 %
28.02.2020 20:24 3,8 C 2,2 C 2,2 C 94 % 1007,0 hPa 0,2 l/m 0 min 2 min 0 W/m 35,4 km/h (5 Bft) 97,87 %
28.02.2020 20:26 3,8 C 2,8 C 2,2 C 94 % 1007,0 hPa 0,0 l/m 0 min 2 min 0 W/m 29,0 km/h (5 Bft) 97,87 %
28.02.2020 20:28 3,8 C 2,8 C 2,2 C 94 % 1006,9 hPa 0,2 l/m 0 min 2 min 0 W/m 29,0 km/h (5 Bft) 100,00 %
28.02.2020 20:30 3,8 C 2,8 C 2,2 C 94 % 1006,8 hPa 0,0 l/m 0 min 2 min 0 W/m 38,6 km/h (5 Bft) 100,00 %
28.02.2020 20:32 3,8 C 2,8 C 2,2 C 94 % 1006,8 hPa 0,2 l/m 0 min 2 min 0 W/m 38,6 km/h (5 Bft) 100,00 %
28.02.2020 20:34 3,8 C 2,8 C 2,2 C 94 % 1006,8 hPa 0,0 l/m 0 min 2 min 0 W/m 41,8 km/h (6 Bft) 100,00 %
28.02.2020 20:36 3,8 C 2,8 C 2,2 C 94 % 1006,8 hPa 0,2 l/m 0 min 2 min 0 W/m 38,6 km/h (5 Bft) 100,00 %
28.02.2020 20:38 3,8 C 2,8 C 2,2 C 94 % 1006,9 hPa 0,0 l/m 0 min 2 min 0 W/m 41,8 km/h (6 Bft) 100,00 %
28.02.2020 20:40 3,8 C 2,8 C 2,2 C 94 % 1006,7 hPa 0,0 l/m 0 min 2 min 0 W/m 41,8 km/h (6 Bft) 97,87 %
28.02.2020 20:42 3,8 C 2,8 C 2,2 C 94 % 1006,5 hPa 0,0 l/m 0 min 2 min 0 W/m 32,2 km/h (5 Bft) 100,00 %
28.02.2020 20:44 3,8 C 2,8 C 2,2 C 95 % 1006,5 hPa 0,2 l/m 0 min 2 min 0 W/m 35,4 km/h (5 Bft) 100,00 %
28.02.2020 20:46 3,9 C 2,8 C 2,2 C 95 % 1006,4 hPa 0,0 l/m 0 min 2 min 0 W/m 35,4 km/h (5 Bft) 100,00 %
28.02.2020 20:48 3,9 C 2,8 C 2,2 C 95 % 1006,4 hPa 0,2 l/m 0 min 2 min 0 W/m 54,7 km/h (7 Bft) 100,00 %
28.02.2020 20:50 3,9 C 2,8 C 2,2 C 95 % 1006,3 hPa 0,0 l/m 0 min 2 min 0 W/m 48,3 km/h (6 Bft) 100,00 %
28.02.2020 20:52 3,9 C 2,8 C 2,2 C 95 % 1006,2 hPa 0,0 l/m 0 min 2 min 0 W/m 25,7 km/h (4 Bft) 97,87 %
28.02.2020 20:54 3,9 C 2,8 C 2,2 C 95 % 1006,2 hPa 0,0 l/m 0 min 2 min 0 W/m 35,4 km/h (5 Bft) 100,00 %
28.02.2020 20:56 3,9 C 2,8 C 2,2 C 95 % 1006,3 hPa 0,2 l/m 0 min 2 min 0 W/m 41,8 km/h (6 Bft) 97,83 %
28.02.2020 20:58 3,9 C 2,8 C 2,2 C 95 % 1006,3 hPa 0,2 l/m 0 min 2 min 0 W/m 38,6 km/h (5 Bft) 100,00 %
28.02.2020 21:00 3,9 C 2,8 C 2,2 C 95 % 1006,3 hPa 0,0 l/m 0 min 2 min 0 W/m 41,8 km/h (6 Bft) 100,00 %
28.02.2020 21:02 3,9 C 2,8 C 2,2 C 95 % 1006,4 hPa 0,2 l/m 0 min 2 min 0 W/m 48,3 km/h (6 Bft) 100,00 %
28.02.2020 21:04 3,9 C 2,8 C 2,2 C 95 % 1006,3 hPa 0,0 l/m 0 min 2 min 0 W/m 29,0 km/h (5 Bft) 97,87 %
28.02.2020 21:06 3,9 C 2,8 C 2,2 C 95 % 1006,2 hPa 0,2 l/m 0 min 2 min 0 W/m 35,4 km/h (5 Bft) 100,00 %
28.02.2020 21:08 3,9 C 2,8 C 2,2 C 95 % 1006,2 hPa 0,0 l/m 0 min 2 min 0 W/m 29,0 km/h (5 Bft) 100,00 %
28.02.2020 21:10 3,9 C 2,8 C 2,2 C 95 % 1006,2 hPa 0,0 l/m 0 min 0 min 0 W/m 29,0 km/h (5 Bft) 100,00 %
28.02.2020 21:12 3,9 C 2,8 C 2,2 C 96 % 1006,2 hPa 0,0 l/m 0 min 0 min 0 W/m 45,1 km/h (6 Bft) 100,00 %
28.02.2020 21:14 3,9 C 2,8 C 2,2 C 95 % 1006,3 hPa 0,0 l/m 0 min 0 min 0 W/m 29,0 km/h (5 Bft) 100,00 %
28.02.2020 21:16 3,9 C 2,8 C 2,2 C 95 % 1006,2 hPa 0,2 l/m 0 min 2 min 0 W/m 38,6 km/h (5 Bft) 97,87 %
28.02.2020 21:18 3,9 C 2,8 C 2,2 C 96 % 1006,1 hPa 0,0 l/m 0 min 2 min 0 W/m 29,0 km/h (5 Bft) 100,00 %
28.02.2020 21:20 3,9 C 2,8 C 2,2 C 96 % 1006,1 hPa 0,0 l/m 0 min 0 min 0 W/m 41,8 km/h (6 Bft) 100,00 %
28.02.2020 21:22 3,9 C 2,8 C 2,2 C 96 % 1006,1 hPa 0,0 l/m 0 min 0 min 0 W/m 38,6 km/h (5 Bft) 100,00 %
28.02.2020 21:24 3,9 C 2,8 C 2,2 C 96 % 1006,0 hPa 0,0 l/m 0 min 2 min 0 W/m 22,5 km/h (4 Bft) 100,00 %
28.02.2020 21:26 3,9 C 2,8 C 2,2 C 96 % 1006,1 hPa 0,2 l/m 0 min 2 min 0 W/m 29,0 km/h (5 Bft) 97,87 %
28.02.2020 21:28 3,9 C 2,8 C 2,2 C 96 % 1006,0 hPa 0,0 l/m 0 min 2 min 0 W/m 35,4 km/h (5 Bft) 100,00 %
28.02.2020 21:30 3,9 C 2,8 C 2,2 C 96 % 1005,9 hPa 0,0 l/m 0 min 0 min 0 W/m 22,5 km/h (4 Bft) 100,00 %
28.02.2020 21:32 3,9 C 2,8 C 2,2 C 96 % 1005,9 hPa 0,0 l/m 0 min 0 min 0 W/m 32,2 km/h (5 Bft) 97,83 %
28.02.2020 21:34 3,9 C 2,8 C 2,2 C 96 % 1005,8 hPa 0,0 l/m 0 min 0 min 0 W/m 45,1 km/h (6 Bft) 97,87 %
28.02.2020 21:36 3,9 C 2,8 C 2,2 C 96 % 1005,8 hPa 0,0 l/m 0 min 0 min 0 W/m 32,2 km/h (5 Bft) 97,87 %
28.02.2020 21:38 3,9 C 2,8 C 2,2 C 96 % 1005,8 hPa 0,0 l/m 0 min 0 min 0 W/m 25,7 km/h (4 Bft) 97,87 %
28.02.2020 21:40 3,9 C 2,8 C 2,2 C 96 % 1005,8 hPa 0,0 l/m 0 min 0 min 0 W/m 38,6 km/h (5 Bft) 97,87 %
28.02.2020 21:42 3,9 C 2,8 C 2,2 C 96 % 1005,8 hPa 0,0 l/m 0 min 0 min 0 W/m 29,0 km/h (5 Bft) 97,83 %
28.02.2020 21:44 3,9 C 2,8 C 2,2 C 96 % 1005,8 hPa 0,0 l/m 0 min 0 min 0 W/m 32,2 km/h (5 Bft) 97,87 %
28.02.2020 21:46 3,9 C 2,8 C 2,2 C 96 % 1005,8 hPa 0,2 l/m 0 min 0 min 0 W/m 29,0 km/h (5 Bft) 97,87 %
28.02.2020 21:48 3,9 C 2,8 C 2,2 C 96 % 1005,8 hPa 0,0 l/m 0 min 0 min 0 W/m 29,0 km/h (5 Bft) 97,87 %
28.02.2020 21:50 3,9 C 2,8 C 2,2 C 97 % 1005,8 hPa 0,0 l/m 0 min 0 min 0 W/m 38,6 km/h (5 Bft) 97,87 %
28.02.2020 21:52 3,9 C 2,8 C 2,2 C 97 % 1005,8 hPa 0,0 l/m 0 min 0 min 0 W/m 38,6 km/h (5 Bft) 97,87 %
28.02.2020 21:54 3,9 C 2,8 C 2,2 C 97 % 1005,8 hPa 0,0 l/m 0 min 0 min 0 W/m 35,4 km/h (5 Bft) 97,83 %
28.02.2020 21:56 3,9 C 2,8 C 2,2 C 97 % 1005,7 hPa 0,0 l/m 0 min 0 min 0 W/m 29,0 km/h (5 Bft) 95,74 %
28.02.2020 21:58 3,9 C 2,8 C 2,2 C 97 % 1005,6 hPa 0,0 l/m 0 min 0 min 0 W/m 41,8 km/h (6 Bft) 95,83 %
28.02.2020 22:00 3,9 C 2,8 C 2,2 C 97 % 1005,5 hPa 0,0 l/m 0 min 0 min 0 W/m 32,2 km/h (5 Bft) 97,14 %
28.02.2020 22:02 3,9 C 2,8 C 2,2 C 97 % 1005,5 hPa 0,0 l/m 0 min 0 min 0 W/m 35,4 km/h (5 Bft) 94,55 %
28.02.2020 22:04 3,9 C 2,8 C 2,2 C 97 % 1005,3 hPa 0,0 l/m 0 min 0 min 0 W/m 25,7 km/h (4 Bft) 96,00 %
28.02.2020 22:06 3,9 C 2,8 C 2,2 C 97 % 1005,3 hPa 0,0 l/m 0 min 0 min 0 W/m 25,7 km/h (4 Bft) 95,83 %
28.02.2020 22:08 3,9 C 2,8 C 2,2 C 97 % 1005,3 hPa 0,0 l/m 0 min 0 min 0 W/m 29,0 km/h (5 Bft) 97,14 %
28.02.2020 22:10 3,9 C 2,8 C 2,8 C 97 % 1005,3 hPa 0,0 l/m 0 min 0 min 0 W/m 41,8 km/h (6 Bft) 94,44 %
28.02.2020 22:12 3,9 C 2,8 C 2,8 C 97 % 1005,2 hPa 0,0 l/m 0 min 0 min 0 W/m 29,0 km/h (5 Bft) 94,00 %
28.02.2020 22:14 3,9 C 3,3 C 2,8 C 97 % 1005,3 hPa 0,0 l/m 0 min 0 min 0 W/m 29,0 km/h (5 Bft) 95,83 %
28.02.2020 22:16 3,9 C 3,3 C 2,8 C 97 % 1005,1 hPa 0,0 l/m 0 min 0 min 0 W/m 29,0 km/h (5 Bft) 91,43 %
28.02.2020 22:18 3,9 C 3,3 C 2,8 C 97 % 1005,3 hPa 0,0 l/m 0 min 0 min 0 W/m 22,5 km/h (4 Bft) 95,74 %
28.02.2020 22:20 3,9 C 3,3 C 2,8 C 97 % 1005,2 hPa 0,0 l/m 0 min 2 min 0 W/m 29,0 km/h (5 Bft) 93,62 %
28.02.2020 22:22 4,0 C 3,3 C 2,8 C 97 % 1005,2 hPa 0,0 l/m 0 min 0 min 0 W/m 22,5 km/h (4 Bft) 95,74 %
28.02.2020 22:24 4,0 C 3,3 C 2,8 C 97 % 1005,1 hPa 0,0 l/m 0 min 0 min 0 W/m 25,7 km/h (4 Bft) 93,48 %
28.02.2020 22:26 4,0 C 3,3 C 2,8 C 97 % 1005,3 hPa 0,0 l/m 0 min 0 min 0 W/m 19,3 km/h (3 Bft) 91,49 %
28.02.2020 22:28 4,0 C 3,3 C 2,8 C 97 % 1005,1 hPa 0,0 l/m 0 min 0 min 0 W/m 22,5 km/h (4 Bft) 91,49 %
28.02.2020 22:30 4,0 C 3,3 C 2,8 C 97 % 1005,2 hPa 0,0 l/m 0 min 0 min 0 W/m 41,8 km/h (6 Bft) 95,74 %
28.02.2020 22:32 4,1 C 3,3 C 2,8 C 97 % 1005,2 hPa 0,0 l/m 0 min 0 min 0 W/m 22,5 km/h (4 Bft) 93,62 %
28.02.2020 22:34 4,1 C 3,3 C 2,8 C 97 % 1005,2 hPa 0,0 l/m 0 min 0 min 0 W/m 25,7 km/h (4 Bft) 91,49 %
28.02.2020 22:36 4,1 C 3,3 C 2,8 C 97 % 1005,2 hPa 0,0 l/m 0 min 0 min 0 W/m 35,4 km/h (5 Bft) 91,30 %
28.02.2020 22:38 4,1 C 3,3 C 2,8 C 97 % 1004,9 hPa 0,0 l/m 0 min 0 min 0 W/m 22,5 km/h (4 Bft) 95,74 %
28.02.2020 22:40 4,1 C 3,3 C 2,8 C 97 % 1005,0 hPa 0,0 l/m 0 min 0 min 0 W/m 25,7 km/h (4 Bft) 97,87 %
28.02.2020 22:42 4,1 C 3,3 C 2,8 C 97 % 1004,9 hPa 0,0 l/m 0 min 0 min 0 W/m 22,5 km/h (4 Bft) 93,62 %
28.02.2020 22:44 4,1 C 3,3 C 2,8 C 97 % 1004,9 hPa 0,0 l/m 0 min 0 min 0 W/m 25,7 km/h (4 Bft) 93,62 %
28.02.2020 22:46 4,1 C 3,3 C 2,8 C 97 % 1004,9 hPa 0,0 l/m 0 min 0 min 0 W/m 22,5 km/h (4 Bft) 93,62 %
28.02.2020 22:48 4,1 C 3,3 C 2,8 C 97 % 1004,9 hPa 0,0 l/m 0 min 0 min 0 W/m 32,2 km/h (5 Bft) 95,65 %
28.02.2020 22:50 4,2 C 3,3 C 2,8 C 97 % 1004,8 hPa 0,0 l/m 0 min 0 min 0 W/m 19,3 km/h (3 Bft) 95,74 %
28.02.2020 22:52 4,2 C 3,3 C 2,8 C 97 % 1004,8 hPa 0,0 l/m 0 min 0 min 0 W/m 25,7 km/h (4 Bft) 97,87 %
28.02.2020 22:54 4,2 C 3,3 C 2,8 C 97 % 1004,9 hPa 0,0 l/m 0 min 0 min 0 W/m 19,3 km/h (3 Bft) 97,87 %
28.02.2020 22:56 4,2 C 3,3 C 2,8 C 97 % 1004,7 hPa 0,0 l/m 0 min 0 min 0 W/m 16,1 km/h (3 Bft) 93,62 %
28.02.2020 22:58 4,2 C 3,3 C 2,8 C 97 % 1004,7 hPa 0,0 l/m 0 min 0 min 0 W/m 19,3 km/h (3 Bft) 97,87 %
28.02.2020 23:00 4,2 C 3,3 C 2,8 C 97 % 1004,6 hPa 0,0 l/m 0 min 0 min 0 W/m 25,7 km/h (4 Bft) 97,83 %
28.02.2020 23:02 4,3 C 3,3 C 2,8 C 97 % 1004,5 hPa 0,0 l/m 0 min 0 min 0 W/m 22,5 km/h (4 Bft) 100,00 %
28.02.2020 23:04 4,2 C 3,3 C 2,8 C 97 % 1004,5 hPa 0,0 l/m 0 min 0 min 0 W/m 22,5 km/h (4 Bft) 97,87 %
28.02.2020 23:06 4,3 C 3,3 C 2,8 C 97 % 1004,5 hPa 0,0 l/m 0 min 0 min 0 W/m 16,1 km/h (3 Bft) 100,00 %
28.02.2020 23:08 4,3 C 3,3 C 2,8 C 97 % 1004,4 hPa 0,0 l/m 0 min 0 min 0 W/m 22,5 km/h (4 Bft) 100,00 %
28.02.2020 23:10 4,3 C 3,9 C 2,8 C 97 % 1004,3 hPa 0,0 l/m 0 min 0 min 0 W/m 29,0 km/h (5 Bft) 100,00 %
28.02.2020 23:12 4,3 C 3,9 C 2,8 C 97 % 1004,3 hPa 0,0 l/m 0 min 0 min 0 W/m 25,7 km/h (4 Bft) 100,00 %
28.02.2020 23:14 4,3 C 3,9 C 2,8 C 97 % 1004,3 hPa 0,0 l/m 0 min 0 min 0 W/m 19,3 km/h (3 Bft) 97,87 %
28.02.2020 23:16 4,3 C 3,9 C 2,8 C 97 % 1004,3 hPa 0,0 l/m 0 min 0 min 0 W/m 22,5 km/h (4 Bft) 100,00 %
28.02.2020 23:18 4,3 C 3,9 C 2,8 C 97 % 1004,2 hPa 0,0 l/m 0 min 0 min 0 W/m 29,0 km/h (5 Bft) 97,87 %
28.02.2020 23:20 4,4 C 3,9 C 3,3 C 97 % 1004,1 hPa 0,0 l/m 0 min 0 min 0 W/m 25,7 km/h (4 Bft) 100,00 %
28.02.2020 23:22 4,4 C 3,9 C 3,3 C 97 % 1004,0 hPa 0,0 l/m 0 min 0 min 0 W/m 22,5 km/h (4 Bft) 100,00 %
28.02.2020 23:24 4,4 C 3,9 C 3,3 C 97 % 1004,0 hPa 0,0 l/m 0 min 0 min 0 W/m 22,5 km/h (4 Bft) 100,00 %
28.02.2020 23:26 4,5 C 3,9 C 3,3 C 97 % 1003,9 hPa 0,0 l/m 0 min 0 min 0 W/m 12,9 km/h (3 Bft) 100,00 %
28.02.2020 23:28 4,6 C 3,9 C 3,3 C 97 % 1003,9 hPa 0,0 l/m 0 min 0 min 0 W/m 12,9 km/h (3 Bft) 100,00 %
28.02.2020 23:30 4,6 C 4,4 C 3,3 C 97 % 1003,8 hPa 0,0 l/m 0 min 0 min 0 W/m 19,3 km/h (3 Bft) 100,00 %
28.02.2020 23:32 4,6 C 4,4 C 3,3 C 97 % 1003,8 hPa 0,0 l/m 0 min 0 min 0 W/m 25,7 km/h (4 Bft) 100,00 %
28.02.2020 23:34 4,7 C 4,4 C 3,3 C 97 % 1003,8 hPa 0,0 l/m 0 min 0 min 0 W/m 19,3 km/h (3 Bft) 100,00 %
28.02.2020 23:36 4,8 C 4,4 C 3,3 C 97 % 1003,7 hPa 0,0 l/m 0 min 0 min 0 W/m 22,5 km/h (4 Bft) 100,00 %
28.02.2020 23:38 4,8 C 4,4 C 3,9 C 97 % 1003,7 hPa 0,0 l/m 0 min 0 min 0 W/m 32,2 km/h (5 Bft) 100,00 %
28.02.2020 23:40 4,9 C 4,4 C 3,9 C 97 % 1003,6 hPa 0,0 l/m 0 min 0 min 0 W/m 25,7 km/h (4 Bft) 100,00 %
28.02.2020 23:42 4,9 C 4,4 C 3,9 C 97 % 1003,6 hPa 0,0 l/m 0 min 0 min 0 W/m 19,3 km/h (3 Bft) 100,00 %
28.02.2020 23:44 5,0 C 4,4 C 3,9 C 97 % 1003,6 hPa 0,0 l/m 0 min 0 min 0 W/m 22,5 km/h (4 Bft) 100,00 %
28.02.2020 23:46 5,1 C 4,4 C 3,9 C 97 % 1003,6 hPa 0,0 l/m 0 min 0 min 0 W/m 19,3 km/h (3 Bft) 100,00 %
28.02.2020 23:48 5,1 C 4,4 C 3,9 C 97 % 1003,6 hPa 0,0 l/m 0 min 0 min 0 W/m 29,0 km/h (5 Bft) 100,00 %
28.02.2020 23:50 5,2 C 5,0 C 3,9 C 97 % 1003,5 hPa 0,0 l/m 0 min 0 min 0 W/m 22,5 km/h (4 Bft) 100,00 %
28.02.2020 23:52 5,2 C 5,0 C 3,9 C 98 % 1003,5 hPa 0,0 l/m 0 min 0 min 0 W/m 19,3 km/h (3 Bft) 100,00 %
28.02.2020 23:54 5,2 C 5,0 C 3,9 C 97 % 1003,4 hPa 0,0 l/m 0 min 0 min 0 W/m 19,3 km/h (3 Bft) 100,00 %
28.02.2020 23:56 5,3 C 5,0 C 3,9 C 97 % 1003,4 hPa 0,0 l/m 0 min 0 min 0 W/m 16,1 km/h (3 Bft) 100,00 %
28.02.2020 23:58 5,3 C 5,0 C 3,9 C 97 % 1003,4 hPa 0,0 l/m 0 min 0 min 0 W/m 19,3 km/h (3 Bft) 100,00 %
_ Min-Zeit 07:16 06:36 06:42 14:32 23:54 - - - - 00:02 05:02
Minimum _ 0,5 C -0,6 C -1,1 C 71 % 1003,4 hPa - - - - 0,0 km/h (0 Bft) 44,74 %
_ Max-Zeit 14:28 14:08 14:08 00:00 10:34 03:18 09:22 18:07 10:48 18:02 00:06
Maximum _ 7,6 C 9,4 C 7,8 C 99 % 1018,1 hPa 0,2 l/m 2 min 3 min 411 W/m 64,4 km/h
S (8 Bft)
100,00 %
Durchschnitt _ 3,6 C 3,3 C 2,5 C 90 % 1013,2 hPa #7,6 l/m #5:24 h #3:30 h 186 W/m 17,4 km/h (3 Bft) 97,19 %
© 2020 W. Hausmann